<?xml version="1.0" encoding="UTF-8" standalone="no" ?>
<gpx xmlns="http://www.topografix.com/GPX/1/1" xmlns:xsi="http://www.w3.org/2001/XMLSchema-instance" xsi:schemaLocation="http://www.topografix.com/GPX/1/1 http://www.topografix.com/GPX/1/1/gpx.xsd" version="1.1" creator="VisuGPX - https://www.visugpx.com">
  <metadata>
    <name>31 - PDD miroir</name>
  </metadata>
  <trk>
    <name><![CDATA[31 - PDD miroir]]></name>
    <extensions>
      <line xmlns="http://www.topografix.com/GPX/gpx_style/0/2">
        <color>0000FF</color>
        <width>4</width>
          <extensions>
            <sens>1</sens>
          </extensions>
      </line>
    </extensions>
    <trkseg>
      <trkpt lat="45.75063" lon="3.08543">
        <ele>445</ele>
        <time>2021-11-19T20:01:39Z</time>
      </trkpt>
      <trkpt lat="45.75063" lon="3.0855">
        <ele>445</ele>
        <time>2021-11-19T20:01:40Z</time>
      </trkpt>
      <trkpt lat="45.75062" lon="3.08559">
        <ele>445</ele>
        <time>2021-11-19T20:01:42Z</time>
      </trkpt>
      <trkpt lat="45.75061" lon="3.08562">
        <ele>445</ele>
        <time>2021-11-19T20:01:42Z</time>
      </trkpt>
      <trkpt lat="45.7506" lon="3.08564">
        <ele>445</ele>
        <time>2021-11-19T20:01:43Z</time>
      </trkpt>
      <trkpt lat="45.75058" lon="3.08565">
        <ele>445</ele>
        <time>2021-11-19T20:01:43Z</time>
      </trkpt>
      <trkpt lat="45.75057" lon="3.08567">
        <ele>445</ele>
        <time>2021-11-19T20:01:44Z</time>
      </trkpt>
      <trkpt lat="45.75055" lon="3.08574">
        <ele>445</ele>
        <time>2021-11-19T20:01:45Z</time>
      </trkpt>
      <trkpt lat="45.75049" lon="3.08567">
        <ele>445</ele>
        <time>2021-11-19T20:01:47Z</time>
      </trkpt>
      <trkpt lat="45.75047" lon="3.08566">
        <ele>445</ele>
        <time>2021-11-19T20:01:48Z</time>
      </trkpt>
      <trkpt lat="45.75039" lon="3.08561">
        <ele>445</ele>
        <time>2021-11-19T20:01:50Z</time>
      </trkpt>
      <trkpt lat="45.75023" lon="3.08555">
        <ele>445</ele>
        <time>2021-11-19T20:01:54Z</time>
      </trkpt>
      <trkpt lat="45.75016" lon="3.08549">
        <ele>445</ele>
        <time>2021-11-19T20:01:57Z</time>
      </trkpt>
      <trkpt lat="45.75012" lon="3.08517">
        <ele>445</ele>
        <time>2021-11-19T20:02:03Z</time>
      </trkpt>
      <trkpt lat="45.75009" lon="3.08494">
        <ele>445</ele>
        <time>2021-11-19T20:02:07Z</time>
      </trkpt>
      <trkpt lat="45.75009" lon="3.0849">
        <ele>445</ele>
        <time>2021-11-19T20:02:08Z</time>
      </trkpt>
      <trkpt lat="45.75007" lon="3.08476">
        <ele>447</ele>
        <time>2021-11-19T20:02:10Z</time>
      </trkpt>
      <trkpt lat="45.75006" lon="3.08464">
        <ele>447</ele>
        <time>2021-11-19T20:02:13Z</time>
      </trkpt>
      <trkpt lat="45.75006" lon="3.08458">
        <ele>447</ele>
        <time>2021-11-19T20:02:14Z</time>
      </trkpt>
      <trkpt lat="45.75005" lon="3.08437">
        <ele>447</ele>
        <time>2021-11-19T20:02:18Z</time>
      </trkpt>
      <trkpt lat="45.75009" lon="3.0843">
        <ele>447</ele>
        <time>2021-11-19T20:02:19Z</time>
      </trkpt>
      <trkpt lat="45.75015" lon="3.08418">
        <ele>447</ele>
        <time>2021-11-19T20:02:22Z</time>
      </trkpt>
      <trkpt lat="45.75027" lon="3.08412">
        <ele>448</ele>
        <time>2021-11-19T20:02:26Z</time>
      </trkpt>
      <trkpt lat="45.75035" lon="3.08403">
        <ele>448</ele>
        <time>2021-11-19T20:02:28Z</time>
      </trkpt>
      <trkpt lat="45.75033" lon="3.08371">
        <ele>448</ele>
        <time>2021-11-19T20:02:34Z</time>
      </trkpt>
      <trkpt lat="45.75032" lon="3.08364">
        <ele>448</ele>
        <time>2021-11-19T20:02:36Z</time>
      </trkpt>
      <trkpt lat="45.75031" lon="3.08315">
        <ele>449</ele>
        <time>2021-11-19T20:02:45Z</time>
      </trkpt>
      <trkpt lat="45.75034" lon="3.08284">
        <ele>449</ele>
        <time>2021-11-19T20:02:51Z</time>
      </trkpt>
      <trkpt lat="45.7503" lon="3.08244">
        <ele>451</ele>
        <time>2021-11-19T20:02:58Z</time>
      </trkpt>
      <trkpt lat="45.75025" lon="3.08195">
        <ele>454</ele>
        <time>2021-11-19T20:03:07Z</time>
      </trkpt>
      <trkpt lat="45.75023" lon="3.0817">
        <ele>454</ele>
        <time>2021-11-19T20:03:12Z</time>
      </trkpt>
      <trkpt lat="45.7502" lon="3.08133">
        <ele>454</ele>
        <time>2021-11-19T20:03:19Z</time>
      </trkpt>
      <trkpt lat="45.75011" lon="3.08078">
        <ele>455</ele>
        <time>2021-11-19T20:03:29Z</time>
      </trkpt>
      <trkpt lat="45.74988" lon="3.07947">
        <ele>459</ele>
        <time>2021-11-19T20:03:55Z</time>
      </trkpt>
      <trkpt lat="45.74987" lon="3.07934">
        <ele>459</ele>
        <time>2021-11-19T20:03:57Z</time>
      </trkpt>
      <trkpt lat="45.74986" lon="3.07921">
        <ele>459</ele>
        <time>2021-11-19T20:04:00Z</time>
      </trkpt>
      <trkpt lat="45.74986" lon="3.0791">
        <ele>459</ele>
        <time>2021-11-19T20:04:02Z</time>
      </trkpt>
      <trkpt lat="45.74985" lon="3.07903">
        <ele>459</ele>
        <time>2021-11-19T20:04:03Z</time>
      </trkpt>
      <trkpt lat="45.74985" lon="3.07889">
        <ele>459</ele>
        <time>2021-11-19T20:04:06Z</time>
      </trkpt>
      <trkpt lat="45.7499" lon="3.07814">
        <ele>460</ele>
        <time>2021-11-19T20:04:20Z</time>
      </trkpt>
      <trkpt lat="45.74991" lon="3.07796">
        <ele>463</ele>
        <time>2021-11-19T20:04:23Z</time>
      </trkpt>
      <trkpt lat="45.74994" lon="3.07757">
        <ele>463</ele>
        <time>2021-11-19T20:04:30Z</time>
      </trkpt>
      <trkpt lat="45.7501" lon="3.07677">
        <ele>464</ele>
        <time>2021-11-19T20:04:46Z</time>
      </trkpt>
      <trkpt lat="45.75012" lon="3.07667">
        <ele>464</ele>
        <time>2021-11-19T20:04:48Z</time>
      </trkpt>
      <trkpt lat="45.75024" lon="3.07614">
        <ele>464</ele>
        <time>2021-11-19T20:04:58Z</time>
      </trkpt>
      <trkpt lat="45.75035" lon="3.07573">
        <ele>465</ele>
        <time>2021-11-19T20:05:06Z</time>
      </trkpt>
      <trkpt lat="45.75043" lon="3.07549">
        <ele>465</ele>
        <time>2021-11-19T20:05:11Z</time>
      </trkpt>
      <trkpt lat="45.75049" lon="3.07554">
        <ele>465</ele>
        <time>2021-11-19T20:05:13Z</time>
      </trkpt>
      <trkpt lat="45.75068" lon="3.07541">
        <ele>466</ele>
        <time>2021-11-19T20:05:19Z</time>
      </trkpt>
      <trkpt lat="45.75101" lon="3.07513">
        <ele>466</ele>
        <time>2021-11-19T20:05:29Z</time>
      </trkpt>
      <trkpt lat="45.75106" lon="3.07508">
        <ele>466</ele>
        <time>2021-11-19T20:05:31Z</time>
      </trkpt>
      <trkpt lat="45.75113" lon="3.07505">
        <ele>466</ele>
        <time>2021-11-19T20:05:33Z</time>
      </trkpt>
      <trkpt lat="45.75117" lon="3.07504">
        <ele>469</ele>
        <time>2021-11-19T20:05:34Z</time>
      </trkpt>
      <trkpt lat="45.75167" lon="3.07512">
        <ele>469</ele>
        <time>2021-11-19T20:05:47Z</time>
      </trkpt>
      <trkpt lat="45.75176" lon="3.07514">
        <ele>475</ele>
        <time>2021-11-19T20:05:50Z</time>
      </trkpt>
      <trkpt lat="45.75184" lon="3.07518">
        <ele>475</ele>
        <time>2021-11-19T20:05:52Z</time>
      </trkpt>
      <trkpt lat="45.75192" lon="3.07523">
        <ele>475</ele>
        <time>2021-11-19T20:05:54Z</time>
      </trkpt>
      <trkpt lat="45.75208" lon="3.0753">
        <ele>475</ele>
        <time>2021-11-19T20:05:59Z</time>
      </trkpt>
      <trkpt lat="45.75221" lon="3.07529">
        <ele>478</ele>
        <time>2021-11-19T20:06:02Z</time>
      </trkpt>
      <trkpt lat="45.75235" lon="3.07524">
        <ele>478</ele>
        <time>2021-11-19T20:06:06Z</time>
      </trkpt>
      <trkpt lat="45.75245" lon="3.07517">
        <ele>478</ele>
        <time>2021-11-19T20:06:09Z</time>
      </trkpt>
      <trkpt lat="45.75257" lon="3.07506">
        <ele>478</ele>
        <time>2021-11-19T20:06:13Z</time>
      </trkpt>
      <trkpt lat="45.7526" lon="3.07502">
        <ele>478</ele>
        <time>2021-11-19T20:06:14Z</time>
      </trkpt>
      <trkpt lat="45.75263" lon="3.07498">
        <ele>478</ele>
        <time>2021-11-19T20:06:15Z</time>
      </trkpt>
      <trkpt lat="45.75268" lon="3.07489">
        <ele>481</ele>
        <time>2021-11-19T20:06:17Z</time>
      </trkpt>
      <trkpt lat="45.75273" lon="3.07478">
        <ele>481</ele>
        <time>2021-11-19T20:06:19Z</time>
      </trkpt>
      <trkpt lat="45.75277" lon="3.07461">
        <ele>481</ele>
        <time>2021-11-19T20:06:23Z</time>
      </trkpt>
      <trkpt lat="45.75283" lon="3.07436">
        <ele>481</ele>
        <time>2021-11-19T20:06:28Z</time>
      </trkpt>
      <trkpt lat="45.75283" lon="3.07417">
        <ele>482</ele>
        <time>2021-11-19T20:06:31Z</time>
      </trkpt>
      <trkpt lat="45.75282" lon="3.07412">
        <ele>482</ele>
        <time>2021-11-19T20:06:32Z</time>
      </trkpt>
      <trkpt lat="45.75279" lon="3.07403">
        <ele>482</ele>
        <time>2021-11-19T20:06:34Z</time>
      </trkpt>
      <trkpt lat="45.75276" lon="3.07391">
        <ele>482</ele>
        <time>2021-11-19T20:06:37Z</time>
      </trkpt>
      <trkpt lat="45.75277" lon="3.07369">
        <ele>482</ele>
        <time>2021-11-19T20:06:41Z</time>
      </trkpt>
      <trkpt lat="45.75278" lon="3.07356">
        <ele>482</ele>
        <time>2021-11-19T20:06:43Z</time>
      </trkpt>
      <trkpt lat="45.75279" lon="3.0735">
        <ele>482</ele>
        <time>2021-11-19T20:06:44Z</time>
      </trkpt>
      <trkpt lat="45.75278" lon="3.07324">
        <ele>484</ele>
        <time>2021-11-19T20:06:49Z</time>
      </trkpt>
      <trkpt lat="45.75272" lon="3.07285">
        <ele>484</ele>
        <time>2021-11-19T20:06:57Z</time>
      </trkpt>
      <trkpt lat="45.75269" lon="3.07279">
        <ele>484</ele>
        <time>2021-11-19T20:06:58Z</time>
      </trkpt>
      <trkpt lat="45.75265" lon="3.07253">
        <ele>488</ele>
        <time>2021-11-19T20:07:03Z</time>
      </trkpt>
      <trkpt lat="45.75258" lon="3.07218">
        <ele>488</ele>
        <time>2021-11-19T20:07:10Z</time>
      </trkpt>
      <trkpt lat="45.75257" lon="3.07184">
        <ele>492</ele>
        <time>2021-11-19T20:07:16Z</time>
      </trkpt>
      <trkpt lat="45.75257" lon="3.07179">
        <ele>492</ele>
        <time>2021-11-19T20:07:17Z</time>
      </trkpt>
      <trkpt lat="45.75256" lon="3.0716">
        <ele>492</ele>
        <time>2021-11-19T20:07:20Z</time>
      </trkpt>
      <trkpt lat="45.75258" lon="3.07149">
        <ele>492</ele>
        <time>2021-11-19T20:07:23Z</time>
      </trkpt>
      <trkpt lat="45.75264" lon="3.07129">
        <ele>492</ele>
        <time>2021-11-19T20:07:27Z</time>
      </trkpt>
      <trkpt lat="45.75267" lon="3.07118">
        <ele>492</ele>
        <time>2021-11-19T20:07:29Z</time>
      </trkpt>
      <trkpt lat="45.75273" lon="3.07093">
        <ele>494</ele>
        <time>2021-11-19T20:07:34Z</time>
      </trkpt>
      <trkpt lat="45.75274" lon="3.07065">
        <ele>494</ele>
        <time>2021-11-19T20:07:39Z</time>
      </trkpt>
      <trkpt lat="45.75275" lon="3.07049">
        <ele>494</ele>
        <time>2021-11-19T20:07:42Z</time>
      </trkpt>
      <trkpt lat="45.75278" lon="3.07027">
        <ele>496</ele>
        <time>2021-11-19T20:07:46Z</time>
      </trkpt>
      <trkpt lat="45.75281" lon="3.07002">
        <ele>496</ele>
        <time>2021-11-19T20:07:51Z</time>
      </trkpt>
      <trkpt lat="45.75283" lon="3.06982">
        <ele>496</ele>
        <time>2021-11-19T20:07:55Z</time>
      </trkpt>
      <trkpt lat="45.75282" lon="3.06963">
        <ele>496</ele>
        <time>2021-11-19T20:07:58Z</time>
      </trkpt>
      <trkpt lat="45.75279" lon="3.06934">
        <ele>500</ele>
        <time>2021-11-19T20:08:04Z</time>
      </trkpt>
      <trkpt lat="45.75278" lon="3.06923">
        <ele>500</ele>
        <time>2021-11-19T20:08:06Z</time>
      </trkpt>
      <trkpt lat="45.75265" lon="3.06884">
        <ele>505</ele>
        <time>2021-11-19T20:08:14Z</time>
      </trkpt>
      <trkpt lat="45.75259" lon="3.0686">
        <ele>505</ele>
        <time>2021-11-19T20:08:19Z</time>
      </trkpt>
      <trkpt lat="45.7526" lon="3.06818">
        <ele>505</ele>
        <time>2021-11-19T20:08:26Z</time>
      </trkpt>
      <trkpt lat="45.75264" lon="3.06785">
        <ele>511</ele>
        <time>2021-11-19T20:08:33Z</time>
      </trkpt>
      <trkpt lat="45.75267" lon="3.06756">
        <ele>511</ele>
        <time>2021-11-19T20:08:38Z</time>
      </trkpt>
      <trkpt lat="45.75268" lon="3.06746">
        <ele>511</ele>
        <time>2021-11-19T20:08:40Z</time>
      </trkpt>
      <trkpt lat="45.75267" lon="3.06733">
        <ele>516</ele>
        <time>2021-11-19T20:08:42Z</time>
      </trkpt>
      <trkpt lat="45.75248" lon="3.06659">
        <ele>523</ele>
        <time>2021-11-19T20:08:57Z</time>
      </trkpt>
      <trkpt lat="45.75223" lon="3.06585">
        <ele>528</ele>
        <time>2021-11-19T20:09:12Z</time>
      </trkpt>
      <trkpt lat="45.75215" lon="3.06564">
        <ele>528</ele>
        <time>2021-11-19T20:09:17Z</time>
      </trkpt>
      <trkpt lat="45.75204" lon="3.0654">
        <ele>528</ele>
        <time>2021-11-19T20:09:22Z</time>
      </trkpt>
      <trkpt lat="45.75182" lon="3.06487">
        <ele>532</ele>
        <time>2021-11-19T20:09:34Z</time>
      </trkpt>
      <trkpt lat="45.7518" lon="3.06483">
        <ele>532</ele>
        <time>2021-11-19T20:09:35Z</time>
      </trkpt>
      <trkpt lat="45.75157" lon="3.06424">
        <ele>535</ele>
        <time>2021-11-19T20:09:47Z</time>
      </trkpt>
      <trkpt lat="45.75153" lon="3.06411">
        <ele>535</ele>
        <time>2021-11-19T20:09:50Z</time>
      </trkpt>
      <trkpt lat="45.75133" lon="3.06388">
        <ele>540</ele>
        <time>2021-11-19T20:09:57Z</time>
      </trkpt>
      <trkpt lat="45.75117" lon="3.06368">
        <ele>540</ele>
        <time>2021-11-19T20:10:02Z</time>
      </trkpt>
      <trkpt lat="45.75106" lon="3.06336">
        <ele>540</ele>
        <time>2021-11-19T20:10:09Z</time>
      </trkpt>
      <trkpt lat="45.75096" lon="3.06317">
        <ele>544</ele>
        <time>2021-11-19T20:10:14Z</time>
      </trkpt>
      <trkpt lat="45.75079" lon="3.06294">
        <ele>544</ele>
        <time>2021-11-19T20:10:20Z</time>
      </trkpt>
      <trkpt lat="45.7506" lon="3.06269">
        <ele>548</ele>
        <time>2021-11-19T20:10:27Z</time>
      </trkpt>
      <trkpt lat="45.75056" lon="3.06264">
        <ele>548</ele>
        <time>2021-11-19T20:10:28Z</time>
      </trkpt>
      <trkpt lat="45.75051" lon="3.06261">
        <ele>548</ele>
        <time>2021-11-19T20:10:30Z</time>
      </trkpt>
      <trkpt lat="45.75036" lon="3.06249">
        <ele>548</ele>
        <time>2021-11-19T20:10:34Z</time>
      </trkpt>
      <trkpt lat="45.75033" lon="3.0624">
        <ele>548</ele>
        <time>2021-11-19T20:10:36Z</time>
      </trkpt>
      <trkpt lat="45.75032" lon="3.06231">
        <ele>548</ele>
        <time>2021-11-19T20:10:38Z</time>
      </trkpt>
      <trkpt lat="45.75032" lon="3.06226">
        <ele>548</ele>
        <time>2021-11-19T20:10:39Z</time>
      </trkpt>
      <trkpt lat="45.75032" lon="3.06219">
        <ele>548</ele>
        <time>2021-11-19T20:10:40Z</time>
      </trkpt>
      <trkpt lat="45.75034" lon="3.06215">
        <ele>554</ele>
        <time>2021-11-19T20:10:41Z</time>
      </trkpt>
      <trkpt lat="45.75035" lon="3.0621">
        <ele>554</ele>
        <time>2021-11-19T20:10:42Z</time>
      </trkpt>
      <trkpt lat="45.75034" lon="3.06205">
        <ele>554</ele>
        <time>2021-11-19T20:10:43Z</time>
      </trkpt>
      <trkpt lat="45.75033" lon="3.06201">
        <ele>554</ele>
        <time>2021-11-19T20:10:44Z</time>
      </trkpt>
      <trkpt lat="45.7503" lon="3.06197">
        <ele>554</ele>
        <time>2021-11-19T20:10:45Z</time>
      </trkpt>
      <trkpt lat="45.75027" lon="3.06195">
        <ele>554</ele>
        <time>2021-11-19T20:10:46Z</time>
      </trkpt>
      <trkpt lat="45.75021" lon="3.06187">
        <ele>554</ele>
        <time>2021-11-19T20:10:48Z</time>
      </trkpt>
      <trkpt lat="45.75015" lon="3.06174">
        <ele>554</ele>
        <time>2021-11-19T20:10:51Z</time>
      </trkpt>
      <trkpt lat="45.75009" lon="3.06166">
        <ele>554</ele>
        <time>2021-11-19T20:10:53Z</time>
      </trkpt>
      <trkpt lat="45.75005" lon="3.06162">
        <ele>554</ele>
        <time>2021-11-19T20:10:54Z</time>
      </trkpt>
      <trkpt lat="45.74999" lon="3.06158">
        <ele>560</ele>
        <time>2021-11-19T20:10:56Z</time>
      </trkpt>
      <trkpt lat="45.74993" lon="3.06156">
        <ele>560</ele>
        <time>2021-11-19T20:10:58Z</time>
      </trkpt>
      <trkpt lat="45.74919" lon="3.06147">
        <ele>565</ele>
        <time>2021-11-19T20:11:17Z</time>
      </trkpt>
      <trkpt lat="45.74914" lon="3.06147">
        <ele>565</ele>
        <time>2021-11-19T20:11:19Z</time>
      </trkpt>
      <trkpt lat="45.74914" lon="3.06143">
        <ele>565</ele>
        <time>2021-11-19T20:11:19Z</time>
      </trkpt>
      <trkpt lat="45.74913" lon="3.0614">
        <ele>565</ele>
        <time>2021-11-19T20:11:20Z</time>
      </trkpt>
      <trkpt lat="45.74906" lon="3.06134">
        <ele>565</ele>
        <time>2021-11-19T20:11:22Z</time>
      </trkpt>
      <trkpt lat="45.74894" lon="3.06126">
        <ele>572</ele>
        <time>2021-11-19T20:11:26Z</time>
      </trkpt>
      <trkpt lat="45.74892" lon="3.06124">
        <ele>572</ele>
        <time>2021-11-19T20:11:26Z</time>
      </trkpt>
      <trkpt lat="45.74883" lon="3.0612">
        <ele>572</ele>
        <time>2021-11-19T20:11:29Z</time>
      </trkpt>
      <trkpt lat="45.7488" lon="3.06118">
        <ele>572</ele>
        <time>2021-11-19T20:11:30Z</time>
      </trkpt>
      <trkpt lat="45.74871" lon="3.06107">
        <ele>572</ele>
        <time>2021-11-19T20:11:33Z</time>
      </trkpt>
      <trkpt lat="45.74837" lon="3.06056">
        <ele>577</ele>
        <time>2021-11-19T20:11:46Z</time>
      </trkpt>
      <trkpt lat="45.74833" lon="3.06047">
        <ele>577</ele>
        <time>2021-11-19T20:11:48Z</time>
      </trkpt>
      <trkpt lat="45.74829" lon="3.06043">
        <ele>577</ele>
        <time>2021-11-19T20:11:49Z</time>
      </trkpt>
      <trkpt lat="45.74816" lon="3.06027">
        <ele>581</ele>
        <time>2021-11-19T20:11:54Z</time>
      </trkpt>
      <trkpt lat="45.74802" lon="3.06011">
        <ele>581</ele>
        <time>2021-11-19T20:11:59Z</time>
      </trkpt>
      <trkpt lat="45.74794" lon="3.06004">
        <ele>581</ele>
        <time>2021-11-19T20:12:01Z</time>
      </trkpt>
      <trkpt lat="45.74769" lon="3.05988">
        <ele>583</ele>
        <time>2021-11-19T20:12:09Z</time>
      </trkpt>
      <trkpt lat="45.74766" lon="3.05986">
        <ele>583</ele>
        <time>2021-11-19T20:12:10Z</time>
      </trkpt>
      <trkpt lat="45.74762" lon="3.05984">
        <ele>583</ele>
        <time>2021-11-19T20:12:11Z</time>
      </trkpt>
      <trkpt lat="45.74783" lon="3.05972">
        <ele>583</ele>
        <time>2021-11-19T20:12:17Z</time>
      </trkpt>
      <trkpt lat="45.74826" lon="3.05932">
        <ele>585</ele>
        <time>2021-11-19T20:12:30Z</time>
      </trkpt>
      <trkpt lat="45.74832" lon="3.05937">
        <ele>585</ele>
        <time>2021-11-19T20:12:32Z</time>
      </trkpt>
      <trkpt lat="45.74863" lon="3.05945">
        <ele>584</ele>
        <time>2021-11-19T20:12:41Z</time>
      </trkpt>
      <trkpt lat="45.74885" lon="3.05942">
        <ele>584</ele>
        <time>2021-11-19T20:12:47Z</time>
      </trkpt>
      <trkpt lat="45.74898" lon="3.05937">
        <ele>585</ele>
        <time>2021-11-19T20:12:50Z</time>
      </trkpt>
      <trkpt lat="45.74925" lon="3.05922">
        <ele>585</ele>
        <time>2021-11-19T20:12:58Z</time>
      </trkpt>
      <trkpt lat="45.7493" lon="3.05914">
        <ele>586</ele>
        <time>2021-11-19T20:13:00Z</time>
      </trkpt>
      <trkpt lat="45.74946" lon="3.05905">
        <ele>586</ele>
        <time>2021-11-19T20:13:05Z</time>
      </trkpt>
      <trkpt lat="45.74974" lon="3.0589">
        <ele>586</ele>
        <time>2021-11-19T20:13:13Z</time>
      </trkpt>
      <trkpt lat="45.74981" lon="3.05887">
        <ele>591</ele>
        <time>2021-11-19T20:13:14Z</time>
      </trkpt>
      <trkpt lat="45.74974" lon="3.05858">
        <ele>591</ele>
        <time>2021-11-19T20:13:20Z</time>
      </trkpt>
      <trkpt lat="45.74981" lon="3.05838">
        <ele>591</ele>
        <time>2021-11-19T20:13:24Z</time>
      </trkpt>
      <trkpt lat="45.74979" lon="3.05825">
        <ele>591</ele>
        <time>2021-11-19T20:13:27Z</time>
      </trkpt>
      <trkpt lat="45.74977" lon="3.05809">
        <ele>597</ele>
        <time>2021-11-19T20:13:30Z</time>
      </trkpt>
      <trkpt lat="45.74975" lon="3.05776">
        <ele>597</ele>
        <time>2021-11-19T20:13:36Z</time>
      </trkpt>
      <trkpt lat="45.74976" lon="3.05741">
        <ele>597</ele>
        <time>2021-11-19T20:13:43Z</time>
      </trkpt>
      <trkpt lat="45.74977" lon="3.0571">
        <ele>602</ele>
        <time>2021-11-19T20:13:48Z</time>
      </trkpt>
      <trkpt lat="45.74975" lon="3.05693">
        <ele>602</ele>
        <time>2021-11-19T20:13:52Z</time>
      </trkpt>
      <trkpt lat="45.74972" lon="3.05668">
        <ele>605</ele>
        <time>2021-11-19T20:13:56Z</time>
      </trkpt>
      <trkpt lat="45.74969" lon="3.05634">
        <ele>605</ele>
        <time>2021-11-19T20:14:03Z</time>
      </trkpt>
      <trkpt lat="45.7497" lon="3.05623">
        <ele>605</ele>
        <time>2021-11-19T20:14:05Z</time>
      </trkpt>
      <trkpt lat="45.74979" lon="3.05615">
        <ele>605</ele>
        <time>2021-11-19T20:14:08Z</time>
      </trkpt>
      <trkpt lat="45.74999" lon="3.0561">
        <ele>605</ele>
        <time>2021-11-19T20:14:13Z</time>
      </trkpt>
      <trkpt lat="45.75031" lon="3.05607">
        <ele>605</ele>
        <time>2021-11-19T20:14:22Z</time>
      </trkpt>
      <trkpt lat="45.75059" lon="3.05612">
        <ele>600</ele>
        <time>2021-11-19T20:14:29Z</time>
      </trkpt>
      <trkpt lat="45.75075" lon="3.05618">
        <ele>600</ele>
        <time>2021-11-19T20:14:34Z</time>
      </trkpt>
      <trkpt lat="45.75091" lon="3.05631">
        <ele>600</ele>
        <time>2021-11-19T20:14:38Z</time>
      </trkpt>
      <trkpt lat="45.75108" lon="3.05644">
        <ele>600</ele>
        <time>2021-11-19T20:14:44Z</time>
      </trkpt>
      <trkpt lat="45.75122" lon="3.05648">
        <ele>600</ele>
        <time>2021-11-19T20:14:47Z</time>
      </trkpt>
      <trkpt lat="45.75155" lon="3.05657">
        <ele>603</ele>
        <time>2021-11-19T20:14:56Z</time>
      </trkpt>
      <trkpt lat="45.75188" lon="3.05654">
        <ele>603</ele>
        <time>2021-11-19T20:15:05Z</time>
      </trkpt>
      <trkpt lat="45.75232" lon="3.05657">
        <ele>611</ele>
        <time>2021-11-19T20:15:17Z</time>
      </trkpt>
      <trkpt lat="45.75261" lon="3.05651">
        <ele>622</ele>
        <time>2021-11-19T20:15:25Z</time>
      </trkpt>
      <trkpt lat="45.75284" lon="3.05643">
        <ele>622</ele>
        <time>2021-11-19T20:15:31Z</time>
      </trkpt>
      <trkpt lat="45.75303" lon="3.05629">
        <ele>622</ele>
        <time>2021-11-19T20:15:37Z</time>
      </trkpt>
      <trkpt lat="45.75313" lon="3.05621">
        <ele>633</ele>
        <time>2021-11-19T20:15:40Z</time>
      </trkpt>
      <trkpt lat="45.75328" lon="3.0561">
        <ele>633</ele>
        <time>2021-11-19T20:15:44Z</time>
      </trkpt>
      <trkpt lat="45.75336" lon="3.05614">
        <ele>633</ele>
        <time>2021-11-19T20:15:47Z</time>
      </trkpt>
      <trkpt lat="45.75344" lon="3.05615">
        <ele>633</ele>
        <time>2021-11-19T20:15:49Z</time>
      </trkpt>
      <trkpt lat="45.75349" lon="3.0561">
        <ele>633</ele>
        <time>2021-11-19T20:15:50Z</time>
      </trkpt>
      <trkpt lat="45.75359" lon="3.05594">
        <ele>644</ele>
        <time>2021-11-19T20:15:54Z</time>
      </trkpt>
      <trkpt lat="45.75365" lon="3.05582">
        <ele>644</ele>
        <time>2021-11-19T20:15:57Z</time>
      </trkpt>
      <trkpt lat="45.75371" lon="3.05574">
        <ele>644</ele>
        <time>2021-11-19T20:15:59Z</time>
      </trkpt>
      <trkpt lat="45.75375" lon="3.05559">
        <ele>644</ele>
        <time>2021-11-19T20:16:02Z</time>
      </trkpt>
      <trkpt lat="45.75386" lon="3.05537">
        <ele>655</ele>
        <time>2021-11-19T20:16:07Z</time>
      </trkpt>
      <trkpt lat="45.75392" lon="3.05517">
        <ele>655</ele>
        <time>2021-11-19T20:16:11Z</time>
      </trkpt>
      <trkpt lat="45.75398" lon="3.05505">
        <ele>655</ele>
        <time>2021-11-19T20:16:14Z</time>
      </trkpt>
      <trkpt lat="45.75407" lon="3.055">
        <ele>655</ele>
        <time>2021-11-19T20:16:17Z</time>
      </trkpt>
      <trkpt lat="45.75418" lon="3.055">
        <ele>655</ele>
        <time>2021-11-19T20:16:20Z</time>
      </trkpt>
      <trkpt lat="45.75432" lon="3.05497">
        <ele>662</ele>
        <time>2021-11-19T20:16:24Z</time>
      </trkpt>
      <trkpt lat="45.75441" lon="3.05489">
        <ele>662</ele>
        <time>2021-11-19T20:16:26Z</time>
      </trkpt>
      <trkpt lat="45.7545" lon="3.05471">
        <ele>662</ele>
        <time>2021-11-19T20:16:30Z</time>
      </trkpt>
      <trkpt lat="45.75456" lon="3.05461">
        <ele>662</ele>
        <time>2021-11-19T20:16:33Z</time>
      </trkpt>
      <trkpt lat="45.7547" lon="3.05447">
        <ele>665</ele>
        <time>2021-11-19T20:16:38Z</time>
      </trkpt>
      <trkpt lat="45.75479" lon="3.05442">
        <ele>665</ele>
        <time>2021-11-19T20:16:40Z</time>
      </trkpt>
      <trkpt lat="45.75496" lon="3.05433">
        <ele>665</ele>
        <time>2021-11-19T20:16:45Z</time>
      </trkpt>
      <trkpt lat="45.75508" lon="3.05429">
        <ele>665</ele>
        <time>2021-11-19T20:16:48Z</time>
      </trkpt>
      <trkpt lat="45.75517" lon="3.05427">
        <ele>665</ele>
        <time>2021-11-19T20:16:51Z</time>
      </trkpt>
      <trkpt lat="45.75516" lon="3.0542">
        <ele>665</ele>
        <time>2021-11-19T20:16:52Z</time>
      </trkpt>
      <trkpt lat="45.75517" lon="3.05413">
        <ele>665</ele>
        <time>2021-11-19T20:16:53Z</time>
      </trkpt>
      <trkpt lat="45.75522" lon="3.05392">
        <ele>665</ele>
        <time>2021-11-19T20:16:57Z</time>
      </trkpt>
      <trkpt lat="45.75525" lon="3.05382">
        <ele>665</ele>
        <time>2021-11-19T20:16:59Z</time>
      </trkpt>
      <trkpt lat="45.7553" lon="3.05384">
        <ele>665</ele>
        <time>2021-11-19T20:17:01Z</time>
      </trkpt>
      <trkpt lat="45.75537" lon="3.05386">
        <ele>665</ele>
        <time>2021-11-19T20:17:03Z</time>
      </trkpt>
      <trkpt lat="45.75548" lon="3.05374">
        <ele>668</ele>
        <time>2021-11-19T20:17:06Z</time>
      </trkpt>
      <trkpt lat="45.75554" lon="3.05347">
        <ele>668</ele>
        <time>2021-11-19T20:17:12Z</time>
      </trkpt>
      <trkpt lat="45.75563" lon="3.05318">
        <ele>668</ele>
        <time>2021-11-19T20:17:18Z</time>
      </trkpt>
      <trkpt lat="45.75574" lon="3.05291">
        <ele>675</ele>
        <time>2021-11-19T20:17:24Z</time>
      </trkpt>
      <trkpt lat="45.75582" lon="3.05248">
        <ele>675</ele>
        <time>2021-11-19T20:17:32Z</time>
      </trkpt>
      <trkpt lat="45.75588" lon="3.05206">
        <ele>680</ele>
        <time>2021-11-19T20:17:40Z</time>
      </trkpt>
      <trkpt lat="45.75591" lon="3.05174">
        <ele>680</ele>
        <time>2021-11-19T20:17:46Z</time>
      </trkpt>
      <trkpt lat="45.75592" lon="3.05141">
        <ele>681</ele>
        <time>2021-11-19T20:17:52Z</time>
      </trkpt>
      <trkpt lat="45.75589" lon="3.05132">
        <ele>681</ele>
        <time>2021-11-19T20:17:54Z</time>
      </trkpt>
      <trkpt lat="45.75596" lon="3.0512">
        <ele>681</ele>
        <time>2021-11-19T20:17:57Z</time>
      </trkpt>
      <trkpt lat="45.75607" lon="3.0506">
        <ele>678</ele>
        <time>2021-11-19T20:18:08Z</time>
      </trkpt>
      <trkpt lat="45.75605" lon="3.05006">
        <ele>680</ele>
        <time>2021-11-19T20:18:18Z</time>
      </trkpt>
      <trkpt lat="45.75587" lon="3.04931">
        <ele>687</ele>
        <time>2021-11-19T20:18:33Z</time>
      </trkpt>
      <trkpt lat="45.75578" lon="3.04879">
        <ele>687</ele>
        <time>2021-11-19T20:18:43Z</time>
      </trkpt>
      <trkpt lat="45.75542" lon="3.04824">
        <ele>687</ele>
        <time>2021-11-19T20:18:57Z</time>
      </trkpt>
      <trkpt lat="45.75508" lon="3.04755">
        <ele>685</ele>
        <time>2021-11-19T20:19:13Z</time>
      </trkpt>
      <trkpt lat="45.75486" lon="3.04733">
        <ele>688</ele>
        <time>2021-11-19T20:19:20Z</time>
      </trkpt>
      <trkpt lat="45.75457" lon="3.04667">
        <ele>687</ele>
        <time>2021-11-19T20:19:35Z</time>
      </trkpt>
      <trkpt lat="45.75421" lon="3.04635">
        <ele>682</ele>
        <time>2021-11-19T20:19:46Z</time>
      </trkpt>
      <trkpt lat="45.75403" lon="3.04611">
        <ele>682</ele>
        <time>2021-11-19T20:19:53Z</time>
      </trkpt>
      <trkpt lat="45.75403" lon="3.04577">
        <ele>666</ele>
        <time>2021-11-19T20:19:59Z</time>
      </trkpt>
      <trkpt lat="45.75415" lon="3.04568">
        <ele>666</ele>
        <time>2021-11-19T20:20:03Z</time>
      </trkpt>
      <trkpt lat="45.75422" lon="3.04562">
        <ele>666</ele>
        <time>2021-11-19T20:20:05Z</time>
      </trkpt>
      <trkpt lat="45.75426" lon="3.0456">
        <ele>666</ele>
        <time>2021-11-19T20:20:06Z</time>
      </trkpt>
      <trkpt lat="45.75466" lon="3.04579">
        <ele>662</ele>
        <time>2021-11-19T20:20:17Z</time>
      </trkpt>
      <trkpt lat="45.75537" lon="3.04534">
        <ele>666</ele>
        <time>2021-11-19T20:20:38Z</time>
      </trkpt>
      <trkpt lat="45.75572" lon="3.04519">
        <ele>668</ele>
        <time>2021-11-19T20:20:48Z</time>
      </trkpt>
      <trkpt lat="45.75616" lon="3.04442">
        <ele>691</ele>
        <time>2021-11-19T20:21:06Z</time>
      </trkpt>
      <trkpt lat="45.75598" lon="3.04382">
        <ele>691</ele>
        <time>2021-11-19T20:21:18Z</time>
      </trkpt>
      <trkpt lat="45.75562" lon="3.04356">
        <ele>700</ele>
        <time>2021-11-19T20:21:29Z</time>
      </trkpt>
      <trkpt lat="45.75507" lon="3.04319">
        <ele>709</ele>
        <time>2021-11-19T20:21:45Z</time>
      </trkpt>
      <trkpt lat="45.75505" lon="3.04281">
        <ele>722</ele>
        <time>2021-11-19T20:21:52Z</time>
      </trkpt>
      <trkpt lat="45.7551" lon="3.04257">
        <ele>722</ele>
        <time>2021-11-19T20:21:57Z</time>
      </trkpt>
      <trkpt lat="45.75502" lon="3.04231">
        <ele>722</ele>
        <time>2021-11-19T20:22:02Z</time>
      </trkpt>
      <trkpt lat="45.75498" lon="3.04231">
        <ele>735</ele>
        <time>2021-11-19T20:22:03Z</time>
      </trkpt>
      <trkpt lat="45.75487" lon="3.04229">
        <ele>735</ele>
        <time>2021-11-19T20:22:06Z</time>
      </trkpt>
      <trkpt lat="45.75475" lon="3.04236">
        <ele>735</ele>
        <time>2021-11-19T20:22:10Z</time>
      </trkpt>
      <trkpt lat="45.75408" lon="3.04218">
        <ele>749</ele>
        <time>2021-11-19T20:22:28Z</time>
      </trkpt>
      <trkpt lat="45.75378" lon="3.04199">
        <ele>754</ele>
        <time>2021-11-19T20:22:37Z</time>
      </trkpt>
      <trkpt lat="45.7533" lon="3.04158">
        <ele>753</ele>
        <time>2021-11-19T20:22:52Z</time>
      </trkpt>
      <trkpt lat="45.75329" lon="3.04148">
        <ele>753</ele>
        <time>2021-11-19T20:22:54Z</time>
      </trkpt>
      <trkpt lat="45.75327" lon="3.04133">
        <ele>753</ele>
        <time>2021-11-19T20:22:57Z</time>
      </trkpt>
      <trkpt lat="45.75342" lon="3.04109">
        <ele>754</ele>
        <time>2021-11-19T20:23:03Z</time>
      </trkpt>
      <trkpt lat="45.75341" lon="3.0408">
        <ele>754</ele>
        <time>2021-11-19T20:23:08Z</time>
      </trkpt>
      <trkpt lat="45.75351" lon="3.04062">
        <ele>754</ele>
        <time>2021-11-19T20:23:12Z</time>
      </trkpt>
      <trkpt lat="45.75349" lon="3.04017">
        <ele>750</ele>
        <time>2021-11-19T20:23:21Z</time>
      </trkpt>
      <trkpt lat="45.75346" lon="3.03991">
        <ele>750</ele>
        <time>2021-11-19T20:23:26Z</time>
      </trkpt>
      <trkpt lat="45.75328" lon="3.0397">
        <ele>738</ele>
        <time>2021-11-19T20:23:32Z</time>
      </trkpt>
      <trkpt lat="45.75321" lon="3.03952">
        <ele>738</ele>
        <time>2021-11-19T20:23:36Z</time>
      </trkpt>
      <trkpt lat="45.75318" lon="3.03927">
        <ele>738</ele>
        <time>2021-11-19T20:23:40Z</time>
      </trkpt>
      <trkpt lat="45.75338" lon="3.03905">
        <ele>739</ele>
        <time>2021-11-19T20:23:47Z</time>
      </trkpt>
      <trkpt lat="45.75349" lon="3.03892">
        <ele>739</ele>
        <time>2021-11-19T20:23:51Z</time>
      </trkpt>
      <trkpt lat="45.75387" lon="3.03867">
        <ele>753</ele>
        <time>2021-11-19T20:24:02Z</time>
      </trkpt>
      <trkpt lat="45.75433" lon="3.03871">
        <ele>772</ele>
        <time>2021-11-19T20:24:14Z</time>
      </trkpt>
      <trkpt lat="45.75429" lon="3.03859">
        <ele>772</ele>
        <time>2021-11-19T20:24:17Z</time>
      </trkpt>
      <trkpt lat="45.75447" lon="3.03827">
        <ele>772</ele>
        <time>2021-11-19T20:24:24Z</time>
      </trkpt>
      <trkpt lat="45.75454" lon="3.03801">
        <ele>778</ele>
        <time>2021-11-19T20:24:30Z</time>
      </trkpt>
      <trkpt lat="45.75456" lon="3.03735">
        <ele>789</ele>
        <time>2021-11-19T20:24:42Z</time>
      </trkpt>
      <trkpt lat="45.75447" lon="3.03684">
        <ele>789</ele>
        <time>2021-11-19T20:24:52Z</time>
      </trkpt>
      <trkpt lat="45.75429" lon="3.03637">
        <ele>795</ele>
        <time>2021-11-19T20:25:02Z</time>
      </trkpt>
      <trkpt lat="45.75407" lon="3.03611">
        <ele>800</ele>
        <time>2021-11-19T20:25:09Z</time>
      </trkpt>
      <trkpt lat="45.75383" lon="3.03577">
        <ele>800</ele>
        <time>2021-11-19T20:25:18Z</time>
      </trkpt>
      <trkpt lat="45.7531" lon="3.03515">
        <ele>800</ele>
        <time>2021-11-19T20:25:41Z</time>
      </trkpt>
      <trkpt lat="45.75287" lon="3.035">
        <ele>800</ele>
        <time>2021-11-19T20:25:48Z</time>
      </trkpt>
      <trkpt lat="45.75252" lon="3.03494">
        <ele>808</ele>
        <time>2021-11-19T20:25:57Z</time>
      </trkpt>
      <trkpt lat="45.75216" lon="3.03486">
        <ele>808</ele>
        <time>2021-11-19T20:26:07Z</time>
      </trkpt>
      <trkpt lat="45.7518" lon="3.03483">
        <ele>816</ele>
        <time>2021-11-19T20:26:17Z</time>
      </trkpt>
      <trkpt lat="45.75161" lon="3.03481">
        <ele>816</ele>
        <time>2021-11-19T20:26:22Z</time>
      </trkpt>
      <trkpt lat="45.75145" lon="3.03462">
        <ele>824</ele>
        <time>2021-11-19T20:26:27Z</time>
      </trkpt>
      <trkpt lat="45.75079" lon="3.0339">
        <ele>829</ele>
        <time>2021-11-19T20:26:49Z</time>
      </trkpt>
      <trkpt lat="45.75045" lon="3.03357">
        <ele>836</ele>
        <time>2021-11-19T20:27:00Z</time>
      </trkpt>
      <trkpt lat="45.74993" lon="3.03336">
        <ele>843</ele>
        <time>2021-11-19T20:27:15Z</time>
      </trkpt>
      <trkpt lat="45.74945" lon="3.03309">
        <ele>847</ele>
        <time>2021-11-19T20:27:29Z</time>
      </trkpt>
      <trkpt lat="45.74906" lon="3.03267">
        <ele>852</ele>
        <time>2021-11-19T20:27:42Z</time>
      </trkpt>
      <trkpt lat="45.74863" lon="3.03217">
        <ele>851</ele>
        <time>2021-11-19T20:27:56Z</time>
      </trkpt>
      <trkpt lat="45.74848" lon="3.03192">
        <ele>851</ele>
        <time>2021-11-19T20:28:03Z</time>
      </trkpt>
      <trkpt lat="45.74838" lon="3.03164">
        <ele>851</ele>
        <time>2021-11-19T20:28:08Z</time>
      </trkpt>
      <trkpt lat="45.74829" lon="3.03136">
        <ele>851</ele>
        <time>2021-11-19T20:28:14Z</time>
      </trkpt>
      <trkpt lat="45.74826" lon="3.03109">
        <ele>852</ele>
        <time>2021-11-19T20:28:19Z</time>
      </trkpt>
      <trkpt lat="45.74822" lon="3.03086">
        <ele>852</ele>
        <time>2021-11-19T20:28:24Z</time>
      </trkpt>
      <trkpt lat="45.74815" lon="3.0304">
        <ele>852</ele>
        <time>2021-11-19T20:28:33Z</time>
      </trkpt>
      <trkpt lat="45.7481" lon="3.03004">
        <ele>852</ele>
        <time>2021-11-19T20:28:39Z</time>
      </trkpt>
      <trkpt lat="45.748" lon="3.02943">
        <ele>849</ele>
        <time>2021-11-19T20:28:51Z</time>
      </trkpt>
      <trkpt lat="45.74832" lon="3.02941">
        <ele>849</ele>
        <time>2021-11-19T20:29:00Z</time>
      </trkpt>
      <trkpt lat="45.74848" lon="3.02941">
        <ele>846</ele>
        <time>2021-11-19T20:29:04Z</time>
      </trkpt>
      <trkpt lat="45.74848" lon="3.02937">
        <ele>846</ele>
        <time>2021-11-19T20:29:05Z</time>
      </trkpt>
      <trkpt lat="45.74847" lon="3.02926">
        <ele>846</ele>
        <time>2021-11-19T20:29:07Z</time>
      </trkpt>
      <trkpt lat="45.74845" lon="3.02912">
        <ele>846</ele>
        <time>2021-11-19T20:29:09Z</time>
      </trkpt>
      <trkpt lat="45.74845" lon="3.02906">
        <ele>846</ele>
        <time>2021-11-19T20:29:10Z</time>
      </trkpt>
      <trkpt lat="45.74842" lon="3.02895">
        <ele>846</ele>
        <time>2021-11-19T20:29:13Z</time>
      </trkpt>
      <trkpt lat="45.74838" lon="3.02875">
        <ele>843</ele>
        <time>2021-11-19T20:29:17Z</time>
      </trkpt>
      <trkpt lat="45.74835" lon="3.02863">
        <ele>843</ele>
        <time>2021-11-19T20:29:19Z</time>
      </trkpt>
      <trkpt lat="45.74826" lon="3.02832">
        <ele>843</ele>
        <time>2021-11-19T20:29:25Z</time>
      </trkpt>
      <trkpt lat="45.74818" lon="3.02812">
        <ele>843</ele>
        <time>2021-11-19T20:29:29Z</time>
      </trkpt>
      <trkpt lat="45.74805" lon="3.02785">
        <ele>841</ele>
        <time>2021-11-19T20:29:36Z</time>
      </trkpt>
      <trkpt lat="45.74799" lon="3.02775">
        <ele>841</ele>
        <time>2021-11-19T20:29:38Z</time>
      </trkpt>
      <trkpt lat="45.74796" lon="3.02769">
        <ele>841</ele>
        <time>2021-11-19T20:29:39Z</time>
      </trkpt>
      <trkpt lat="45.74794" lon="3.02762">
        <ele>841</ele>
        <time>2021-11-19T20:29:41Z</time>
      </trkpt>
      <trkpt lat="45.74792" lon="3.02749">
        <ele>837</ele>
        <time>2021-11-19T20:29:43Z</time>
      </trkpt>
      <trkpt lat="45.74791" lon="3.02736">
        <ele>837</ele>
        <time>2021-11-19T20:29:46Z</time>
      </trkpt>
      <trkpt lat="45.74791" lon="3.02724">
        <ele>837</ele>
        <time>2021-11-19T20:29:48Z</time>
      </trkpt>
      <trkpt lat="45.74791" lon="3.02711">
        <ele>837</ele>
        <time>2021-11-19T20:29:50Z</time>
      </trkpt>
      <trkpt lat="45.74792" lon="3.02704">
        <ele>837</ele>
        <time>2021-11-19T20:29:52Z</time>
      </trkpt>
      <trkpt lat="45.74794" lon="3.02696">
        <ele>837</ele>
        <time>2021-11-19T20:29:53Z</time>
      </trkpt>
      <trkpt lat="45.74797" lon="3.02689">
        <ele>837</ele>
        <time>2021-11-19T20:29:55Z</time>
      </trkpt>
      <trkpt lat="45.74799" lon="3.02684">
        <ele>837</ele>
        <time>2021-11-19T20:29:56Z</time>
      </trkpt>
      <trkpt lat="45.74804" lon="3.02678">
        <ele>833</ele>
        <time>2021-11-19T20:29:58Z</time>
      </trkpt>
      <trkpt lat="45.74807" lon="3.02676">
        <ele>833</ele>
        <time>2021-11-19T20:29:59Z</time>
      </trkpt>
      <trkpt lat="45.74813" lon="3.02672">
        <ele>833</ele>
        <time>2021-11-19T20:30:00Z</time>
      </trkpt>
      <trkpt lat="45.74819" lon="3.0267">
        <ele>833</ele>
        <time>2021-11-19T20:30:02Z</time>
      </trkpt>
      <trkpt lat="45.74841" lon="3.02662">
        <ele>833</ele>
        <time>2021-11-19T20:30:08Z</time>
      </trkpt>
      <trkpt lat="45.74846" lon="3.02659">
        <ele>833</ele>
        <time>2021-11-19T20:30:10Z</time>
      </trkpt>
      <trkpt lat="45.74852" lon="3.02654">
        <ele>833</ele>
        <time>2021-11-19T20:30:11Z</time>
      </trkpt>
      <trkpt lat="45.74856" lon="3.02648">
        <ele>831</ele>
        <time>2021-11-19T20:30:13Z</time>
      </trkpt>
      <trkpt lat="45.74858" lon="3.02643">
        <ele>831</ele>
        <time>2021-11-19T20:30:14Z</time>
      </trkpt>
      <trkpt lat="45.74859" lon="3.0264">
        <ele>831</ele>
        <time>2021-11-19T20:30:15Z</time>
      </trkpt>
      <trkpt lat="45.74861" lon="3.02632">
        <ele>831</ele>
        <time>2021-11-19T20:30:16Z</time>
      </trkpt>
      <trkpt lat="45.74862" lon="3.02625">
        <ele>831</ele>
        <time>2021-11-19T20:30:18Z</time>
      </trkpt>
      <trkpt lat="45.74862" lon="3.02616">
        <ele>831</ele>
        <time>2021-11-19T20:30:19Z</time>
      </trkpt>
      <trkpt lat="45.7486" lon="3.02607">
        <ele>831</ele>
        <time>2021-11-19T20:30:21Z</time>
      </trkpt>
      <trkpt lat="45.74857" lon="3.02598">
        <ele>831</ele>
        <time>2021-11-19T20:30:23Z</time>
      </trkpt>
      <trkpt lat="45.74853" lon="3.02589">
        <ele>831</ele>
        <time>2021-11-19T20:30:25Z</time>
      </trkpt>
      <trkpt lat="45.74841" lon="3.02568">
        <ele>828</ele>
        <time>2021-11-19T20:30:30Z</time>
      </trkpt>
      <trkpt lat="45.74835" lon="3.02557">
        <ele>828</ele>
        <time>2021-11-19T20:30:32Z</time>
      </trkpt>
      <trkpt lat="45.74831" lon="3.02543">
        <ele>828</ele>
        <time>2021-11-19T20:30:35Z</time>
      </trkpt>
      <trkpt lat="45.74825" lon="3.02518">
        <ele>828</ele>
        <time>2021-11-19T20:30:40Z</time>
      </trkpt>
      <trkpt lat="45.74821" lon="3.02496">
        <ele>827</ele>
        <time>2021-11-19T20:30:44Z</time>
      </trkpt>
      <trkpt lat="45.74819" lon="3.02484">
        <ele>827</ele>
        <time>2021-11-19T20:30:47Z</time>
      </trkpt>
      <trkpt lat="45.74808" lon="3.0244">
        <ele>827</ele>
        <time>2021-11-19T20:30:55Z</time>
      </trkpt>
      <trkpt lat="45.74803" lon="3.02419">
        <ele>829</ele>
        <time>2021-11-19T20:31:00Z</time>
      </trkpt>
      <trkpt lat="45.748" lon="3.02404">
        <ele>829</ele>
        <time>2021-11-19T20:31:03Z</time>
      </trkpt>
      <trkpt lat="45.74799" lon="3.02401">
        <ele>829</ele>
        <time>2021-11-19T20:31:03Z</time>
      </trkpt>
      <trkpt lat="45.74797" lon="3.02398">
        <ele>829</ele>
        <time>2021-11-19T20:31:04Z</time>
      </trkpt>
      <trkpt lat="45.7479" lon="3.02387">
        <ele>829</ele>
        <time>2021-11-19T20:31:07Z</time>
      </trkpt>
      <trkpt lat="45.74785" lon="3.02381">
        <ele>829</ele>
        <time>2021-11-19T20:31:08Z</time>
      </trkpt>
      <trkpt lat="45.74782" lon="3.02376">
        <ele>829</ele>
        <time>2021-11-19T20:31:10Z</time>
      </trkpt>
      <trkpt lat="45.74782" lon="3.02367">
        <ele>831</ele>
        <time>2021-11-19T20:31:11Z</time>
      </trkpt>
      <trkpt lat="45.7478" lon="3.02359">
        <ele>831</ele>
        <time>2021-11-19T20:31:13Z</time>
      </trkpt>
      <trkpt lat="45.74776" lon="3.02351">
        <ele>831</ele>
        <time>2021-11-19T20:31:15Z</time>
      </trkpt>
      <trkpt lat="45.74771" lon="3.02346">
        <ele>831</ele>
        <time>2021-11-19T20:31:16Z</time>
      </trkpt>
      <trkpt lat="45.74764" lon="3.02337">
        <ele>831</ele>
        <time>2021-11-19T20:31:19Z</time>
      </trkpt>
      <trkpt lat="45.74762" lon="3.02332">
        <ele>831</ele>
        <time>2021-11-19T20:31:20Z</time>
      </trkpt>
      <trkpt lat="45.7476" lon="3.02327">
        <ele>831</ele>
        <time>2021-11-19T20:31:21Z</time>
      </trkpt>
      <trkpt lat="45.74757" lon="3.02315">
        <ele>831</ele>
        <time>2021-11-19T20:31:23Z</time>
      </trkpt>
      <trkpt lat="45.74753" lon="3.02296">
        <ele>835</ele>
        <time>2021-11-19T20:31:27Z</time>
      </trkpt>
      <trkpt lat="45.74747" lon="3.02282">
        <ele>835</ele>
        <time>2021-11-19T20:31:30Z</time>
      </trkpt>
      <trkpt lat="45.74742" lon="3.02269">
        <ele>835</ele>
        <time>2021-11-19T20:31:33Z</time>
      </trkpt>
      <trkpt lat="45.74738" lon="3.0226">
        <ele>835</ele>
        <time>2021-11-19T20:31:35Z</time>
      </trkpt>
      <trkpt lat="45.74732" lon="3.02249">
        <ele>835</ele>
        <time>2021-11-19T20:31:38Z</time>
      </trkpt>
      <trkpt lat="45.74717" lon="3.02225">
        <ele>841</ele>
        <time>2021-11-19T20:31:44Z</time>
      </trkpt>
      <trkpt lat="45.74696" lon="3.02192">
        <ele>841</ele>
        <time>2021-11-19T20:31:52Z</time>
      </trkpt>
      <trkpt lat="45.74698" lon="3.02188">
        <ele>841</ele>
        <time>2021-11-19T20:31:53Z</time>
      </trkpt>
      <trkpt lat="45.74704" lon="3.02173">
        <ele>848</ele>
        <time>2021-11-19T20:31:56Z</time>
      </trkpt>
      <trkpt lat="45.74708" lon="3.02162">
        <ele>848</ele>
        <time>2021-11-19T20:31:58Z</time>
      </trkpt>
      <trkpt lat="45.74712" lon="3.02148">
        <ele>848</ele>
        <time>2021-11-19T20:32:01Z</time>
      </trkpt>
      <trkpt lat="45.74714" lon="3.0214">
        <ele>848</ele>
        <time>2021-11-19T20:32:03Z</time>
      </trkpt>
      <trkpt lat="45.74714" lon="3.02133">
        <ele>848</ele>
        <time>2021-11-19T20:32:04Z</time>
      </trkpt>
      <trkpt lat="45.74725" lon="3.02125">
        <ele>848</ele>
        <time>2021-11-19T20:32:07Z</time>
      </trkpt>
      <trkpt lat="45.74736" lon="3.02101">
        <ele>854</ele>
        <time>2021-11-19T20:32:13Z</time>
      </trkpt>
      <trkpt lat="45.74761" lon="3.02057">
        <ele>854</ele>
        <time>2021-11-19T20:32:23Z</time>
      </trkpt>
      <trkpt lat="45.74796" lon="3.02004">
        <ele>857</ele>
        <time>2021-11-19T20:32:37Z</time>
      </trkpt>
      <trkpt lat="45.74802" lon="3.0199">
        <ele>860</ele>
        <time>2021-11-19T20:32:40Z</time>
      </trkpt>
      <trkpt lat="45.74807" lon="3.01977">
        <ele>860</ele>
        <time>2021-11-19T20:32:43Z</time>
      </trkpt>
      <trkpt lat="45.74811" lon="3.01954">
        <ele>860</ele>
        <time>2021-11-19T20:32:47Z</time>
      </trkpt>
      <trkpt lat="45.74813" lon="3.01905">
        <ele>864</ele>
        <time>2021-11-19T20:32:56Z</time>
      </trkpt>
      <trkpt lat="45.74816" lon="3.01884">
        <ele>864</ele>
        <time>2021-11-19T20:33:00Z</time>
      </trkpt>
      <trkpt lat="45.74824" lon="3.01854">
        <ele>864</ele>
        <time>2021-11-19T20:33:06Z</time>
      </trkpt>
      <trkpt lat="45.74851" lon="3.01788">
        <ele>870</ele>
        <time>2021-11-19T20:33:21Z</time>
      </trkpt>
      <trkpt lat="45.74853" lon="3.01771">
        <ele>876</ele>
        <time>2021-11-19T20:33:24Z</time>
      </trkpt>
      <trkpt lat="45.74851" lon="3.01742">
        <ele>876</ele>
        <time>2021-11-19T20:33:29Z</time>
      </trkpt>
      <trkpt lat="45.74853" lon="3.01723">
        <ele>876</ele>
        <time>2021-11-19T20:33:33Z</time>
      </trkpt>
      <trkpt lat="45.74862" lon="3.01694">
        <ele>881</ele>
        <time>2021-11-19T20:33:39Z</time>
      </trkpt>
      <trkpt lat="45.74869" lon="3.01677">
        <ele>881</ele>
        <time>2021-11-19T20:33:42Z</time>
      </trkpt>
      <trkpt lat="45.74885" lon="3.0165">
        <ele>881</ele>
        <time>2021-11-19T20:33:49Z</time>
      </trkpt>
      <trkpt lat="45.74901" lon="3.01627">
        <ele>874</ele>
        <time>2021-11-19T20:33:55Z</time>
      </trkpt>
      <trkpt lat="45.74916" lon="3.01596">
        <ele>874</ele>
        <time>2021-11-19T20:34:02Z</time>
      </trkpt>
      <trkpt lat="45.74922" lon="3.0158">
        <ele>874</ele>
        <time>2021-11-19T20:34:05Z</time>
      </trkpt>
      <trkpt lat="45.74926" lon="3.01562">
        <ele>869</ele>
        <time>2021-11-19T20:34:09Z</time>
      </trkpt>
      <trkpt lat="45.74927" lon="3.01553">
        <ele>869</ele>
        <time>2021-11-19T20:34:11Z</time>
      </trkpt>
      <trkpt lat="45.74927" lon="3.01544">
        <ele>869</ele>
        <time>2021-11-19T20:34:12Z</time>
      </trkpt>
      <trkpt lat="45.74927" lon="3.01537">
        <ele>869</ele>
        <time>2021-11-19T20:34:14Z</time>
      </trkpt>
      <trkpt lat="45.74926" lon="3.01532">
        <ele>869</ele>
        <time>2021-11-19T20:34:15Z</time>
      </trkpt>
      <trkpt lat="45.74924" lon="3.01529">
        <ele>869</ele>
        <time>2021-11-19T20:34:15Z</time>
      </trkpt>
      <trkpt lat="45.74938" lon="3.01507">
        <ele>865</ele>
        <time>2021-11-19T20:34:21Z</time>
      </trkpt>
      <trkpt lat="45.74949" lon="3.01524">
        <ele>865</ele>
        <time>2021-11-19T20:34:25Z</time>
      </trkpt>
      <trkpt lat="45.74959" lon="3.01541">
        <ele>865</ele>
        <time>2021-11-19T20:34:29Z</time>
      </trkpt>
      <trkpt lat="45.74963" lon="3.01545">
        <ele>865</ele>
        <time>2021-11-19T20:34:31Z</time>
      </trkpt>
      <trkpt lat="45.74968" lon="3.01547">
        <ele>865</ele>
        <time>2021-11-19T20:34:32Z</time>
      </trkpt>
      <trkpt lat="45.74975" lon="3.01548">
        <ele>865</ele>
        <time>2021-11-19T20:34:34Z</time>
      </trkpt>
      <trkpt lat="45.74986" lon="3.01548">
        <ele>862</ele>
        <time>2021-11-19T20:34:37Z</time>
      </trkpt>
      <trkpt lat="45.74997" lon="3.01547">
        <ele>862</ele>
        <time>2021-11-19T20:34:40Z</time>
      </trkpt>
      <trkpt lat="45.75019" lon="3.01541">
        <ele>862</ele>
        <time>2021-11-19T20:34:46Z</time>
      </trkpt>
      <trkpt lat="45.75025" lon="3.01538">
        <ele>868</ele>
        <time>2021-11-19T20:34:48Z</time>
      </trkpt>
      <trkpt lat="45.75035" lon="3.01533">
        <ele>868</ele>
        <time>2021-11-19T20:34:50Z</time>
      </trkpt>
      <trkpt lat="45.75043" lon="3.01532">
        <ele>868</ele>
        <time>2021-11-19T20:34:53Z</time>
      </trkpt>
      <trkpt lat="45.75049" lon="3.01531">
        <ele>868</ele>
        <time>2021-11-19T20:34:54Z</time>
      </trkpt>
      <trkpt lat="45.75054" lon="3.01532">
        <ele>868</ele>
        <time>2021-11-19T20:34:55Z</time>
      </trkpt>
      <trkpt lat="45.7506" lon="3.01538">
        <ele>868</ele>
        <time>2021-11-19T20:34:57Z</time>
      </trkpt>
      <trkpt lat="45.75067" lon="3.01548">
        <ele>868</ele>
        <time>2021-11-19T20:35:00Z</time>
      </trkpt>
      <trkpt lat="45.75086" lon="3.0157">
        <ele>875</ele>
        <time>2021-11-19T20:35:07Z</time>
      </trkpt>
      <trkpt lat="45.75108" lon="3.01582">
        <ele>875</ele>
        <time>2021-11-19T20:35:13Z</time>
      </trkpt>
      <trkpt lat="45.75125" lon="3.01591">
        <ele>882</ele>
        <time>2021-11-19T20:35:18Z</time>
      </trkpt>
      <trkpt lat="45.75149" lon="3.01605">
        <ele>882</ele>
        <time>2021-11-19T20:35:25Z</time>
      </trkpt>
      <trkpt lat="45.7517" lon="3.01614">
        <ele>882</ele>
        <time>2021-11-19T20:35:31Z</time>
      </trkpt>
      <trkpt lat="45.75173" lon="3.01583">
        <ele>886</ele>
        <time>2021-11-19T20:35:36Z</time>
      </trkpt>
      <trkpt lat="45.75178" lon="3.01529">
        <ele>888</ele>
        <time>2021-11-19T20:35:46Z</time>
      </trkpt>
      <trkpt lat="45.75178" lon="3.01524">
        <ele>888</ele>
        <time>2021-11-19T20:35:47Z</time>
      </trkpt>
      <trkpt lat="45.75185" lon="3.01465">
        <ele>888</ele>
        <time>2021-11-19T20:35:59Z</time>
      </trkpt>
      <trkpt lat="45.75188" lon="3.01429">
        <ele>893</ele>
        <time>2021-11-19T20:36:05Z</time>
      </trkpt>
      <trkpt lat="45.7519" lon="3.01401">
        <ele>893</ele>
        <time>2021-11-19T20:36:11Z</time>
      </trkpt>
      <trkpt lat="45.75193" lon="3.01327">
        <ele>896</ele>
        <time>2021-11-19T20:36:24Z</time>
      </trkpt>
      <trkpt lat="45.75191" lon="3.01293">
        <ele>899</ele>
        <time>2021-11-19T20:36:31Z</time>
      </trkpt>
      <trkpt lat="45.75202" lon="3.0128">
        <ele>899</ele>
        <time>2021-11-19T20:36:35Z</time>
      </trkpt>
      <trkpt lat="45.75214" lon="3.0126">
        <ele>899</ele>
        <time>2021-11-19T20:36:39Z</time>
      </trkpt>
      <trkpt lat="45.75273" lon="3.01125">
        <ele>901</ele>
        <time>2021-11-19T20:37:09Z</time>
      </trkpt>
      <trkpt lat="45.75282" lon="3.01109">
        <ele>901</ele>
        <time>2021-11-19T20:37:13Z</time>
      </trkpt>
      <trkpt lat="45.7528" lon="3.01093">
        <ele>904</ele>
        <time>2021-11-19T20:37:16Z</time>
      </trkpt>
      <trkpt lat="45.75282" lon="3.01082">
        <ele>904</ele>
        <time>2021-11-19T20:37:18Z</time>
      </trkpt>
      <trkpt lat="45.75326" lon="3.0099">
        <ele>907</ele>
        <time>2021-11-19T20:37:39Z</time>
      </trkpt>
      <trkpt lat="45.75342" lon="3.00934">
        <ele>911</ele>
        <time>2021-11-19T20:37:50Z</time>
      </trkpt>
      <trkpt lat="45.75349" lon="3.00887">
        <ele>914</ele>
        <time>2021-11-19T20:37:59Z</time>
      </trkpt>
      <trkpt lat="45.7535" lon="3.00819">
        <ele>914</ele>
        <time>2021-11-19T20:38:12Z</time>
      </trkpt>
      <trkpt lat="45.7535" lon="3.00789">
        <ele>914</ele>
        <time>2021-11-19T20:38:17Z</time>
      </trkpt>
      <trkpt lat="45.7535" lon="3.00756">
        <ele>914</ele>
        <time>2021-11-19T20:38:24Z</time>
      </trkpt>
      <trkpt lat="45.75353" lon="3.00722">
        <ele>912</ele>
        <time>2021-11-19T20:38:30Z</time>
      </trkpt>
      <trkpt lat="45.75355" lon="3.00706">
        <ele>912</ele>
        <time>2021-11-19T20:38:33Z</time>
      </trkpt>
      <trkpt lat="45.75354" lon="3.0069">
        <ele>912</ele>
        <time>2021-11-19T20:38:36Z</time>
      </trkpt>
      <trkpt lat="45.75355" lon="3.00644">
        <ele>911</ele>
        <time>2021-11-19T20:38:45Z</time>
      </trkpt>
      <trkpt lat="45.75358" lon="3.00616">
        <ele>911</ele>
        <time>2021-11-19T20:38:50Z</time>
      </trkpt>
      <trkpt lat="45.75358" lon="3.00569">
        <ele>910</ele>
        <time>2021-11-19T20:38:59Z</time>
      </trkpt>
      <trkpt lat="45.75357" lon="3.00542">
        <ele>910</ele>
        <time>2021-11-19T20:39:04Z</time>
      </trkpt>
      <trkpt lat="45.75357" lon="3.00534">
        <ele>910</ele>
        <time>2021-11-19T20:39:05Z</time>
      </trkpt>
      <trkpt lat="45.7535" lon="3.00472">
        <ele>913</ele>
        <time>2021-11-19T20:39:17Z</time>
      </trkpt>
      <trkpt lat="45.75348" lon="3.00453">
        <ele>913</ele>
        <time>2021-11-19T20:39:20Z</time>
      </trkpt>
      <trkpt lat="45.75348" lon="3.00451">
        <ele>913</ele>
        <time>2021-11-19T20:39:21Z</time>
      </trkpt>
      <trkpt lat="45.75324" lon="3.00344">
        <ele>922</ele>
        <time>2021-11-19T20:39:42Z</time>
      </trkpt>
      <trkpt lat="45.75212" lon="3.00328">
        <ele>914</ele>
        <time>2021-11-19T20:40:12Z</time>
      </trkpt>
      <trkpt lat="45.75207" lon="3.00304">
        <ele>914</ele>
        <time>2021-11-19T20:40:17Z</time>
      </trkpt>
      <trkpt lat="45.75207" lon="3.00267">
        <ele>911</ele>
        <time>2021-11-19T20:40:23Z</time>
      </trkpt>
      <trkpt lat="45.75208" lon="3.00229">
        <ele>911</ele>
        <time>2021-11-19T20:40:31Z</time>
      </trkpt>
      <trkpt lat="45.75202" lon="3.00196">
        <ele>910</ele>
        <time>2021-11-19T20:40:37Z</time>
      </trkpt>
      <trkpt lat="45.75206" lon="3.00161">
        <ele>910</ele>
        <time>2021-11-19T20:40:44Z</time>
      </trkpt>
      <trkpt lat="45.75207" lon="3.00146">
        <ele>910</ele>
        <time>2021-11-19T20:40:46Z</time>
      </trkpt>
      <trkpt lat="45.75212" lon="3.00117">
        <ele>911</ele>
        <time>2021-11-19T20:40:52Z</time>
      </trkpt>
      <trkpt lat="45.75236" lon="3.00101">
        <ele>911</ele>
        <time>2021-11-19T20:40:59Z</time>
      </trkpt>
      <trkpt lat="45.7526" lon="3.00076">
        <ele>914</ele>
        <time>2021-11-19T20:41:07Z</time>
      </trkpt>
      <trkpt lat="45.75348" lon="3.00053">
        <ele>918</ele>
        <time>2021-11-19T20:41:31Z</time>
      </trkpt>
      <trkpt lat="45.75397" lon="3.00007">
        <ele>927</ele>
        <time>2021-11-19T20:41:46Z</time>
      </trkpt>
      <trkpt lat="45.75402" lon="2.99917">
        <ele>932</ele>
        <time>2021-11-19T20:42:03Z</time>
      </trkpt>
      <trkpt lat="45.75405" lon="2.99869">
        <ele>932</ele>
        <time>2021-11-19T20:42:12Z</time>
      </trkpt>
      <trkpt lat="45.75404" lon="2.99863">
        <ele>932</ele>
        <time>2021-11-19T20:42:13Z</time>
      </trkpt>
      <trkpt lat="45.75403" lon="2.99837">
        <ele>937</ele>
        <time>2021-11-19T20:42:18Z</time>
      </trkpt>
      <trkpt lat="45.75402" lon="2.9978">
        <ele>937</ele>
        <time>2021-11-19T20:42:29Z</time>
      </trkpt>
      <trkpt lat="45.75406" lon="2.99698">
        <ele>940</ele>
        <time>2021-11-19T20:42:44Z</time>
      </trkpt>
      <trkpt lat="45.75413" lon="2.99627">
        <ele>944</ele>
        <time>2021-11-19T20:42:58Z</time>
      </trkpt>
      <trkpt lat="45.75412" lon="2.99595">
        <ele>947</ele>
        <time>2021-11-19T20:43:04Z</time>
      </trkpt>
      <trkpt lat="45.75409" lon="2.99579">
        <ele>947</ele>
        <time>2021-11-19T20:43:07Z</time>
      </trkpt>
      <trkpt lat="45.75415" lon="2.99456">
        <ele>950</ele>
        <time>2021-11-19T20:43:30Z</time>
      </trkpt>
      <trkpt lat="45.75415" lon="2.99392">
        <ele>950</ele>
        <time>2021-11-19T20:43:42Z</time>
      </trkpt>
      <trkpt lat="45.75416" lon="2.9937">
        <ele>950</ele>
        <time>2021-11-19T20:43:46Z</time>
      </trkpt>
      <trkpt lat="45.75411" lon="2.9934">
        <ele>950</ele>
        <time>2021-11-19T20:43:51Z</time>
      </trkpt>
      <trkpt lat="45.75399" lon="2.99285">
        <ele>948</ele>
        <time>2021-11-19T20:44:02Z</time>
      </trkpt>
      <trkpt lat="45.75387" lon="2.99239">
        <ele>948</ele>
        <time>2021-11-19T20:44:11Z</time>
      </trkpt>
      <trkpt lat="45.75377" lon="2.99127">
        <ele>942</ele>
        <time>2021-11-19T20:44:32Z</time>
      </trkpt>
      <trkpt lat="45.75375" lon="2.99022">
        <ele>941</ele>
        <time>2021-11-19T20:44:52Z</time>
      </trkpt>
      <trkpt lat="45.75376" lon="2.99018">
        <ele>941</ele>
        <time>2021-11-19T20:44:53Z</time>
      </trkpt>
      <trkpt lat="45.75381" lon="2.9885">
        <ele>943</ele>
        <time>2021-11-19T20:45:24Z</time>
      </trkpt>
      <trkpt lat="45.75382" lon="2.98793">
        <ele>943</ele>
        <time>2021-11-19T20:45:35Z</time>
      </trkpt>
      <trkpt lat="45.75383" lon="2.98752">
        <ele>939</ele>
        <time>2021-11-19T20:45:42Z</time>
      </trkpt>
      <trkpt lat="45.75384" lon="2.98701">
        <ele>939</ele>
        <time>2021-11-19T20:45:52Z</time>
      </trkpt>
      <trkpt lat="45.75389" lon="2.98538">
        <ele>933</ele>
        <time>2021-11-19T20:46:22Z</time>
      </trkpt>
      <trkpt lat="45.75382" lon="2.98428">
        <ele>925</ele>
        <time>2021-11-19T20:46:43Z</time>
      </trkpt>
      <trkpt lat="45.75382" lon="2.98419">
        <ele>925</ele>
        <time>2021-11-19T20:46:45Z</time>
      </trkpt>
      <trkpt lat="45.7539" lon="2.98327">
        <ele>922</ele>
        <time>2021-11-19T20:47:02Z</time>
      </trkpt>
      <trkpt lat="45.75397" lon="2.98281">
        <ele>919</ele>
        <time>2021-11-19T20:47:11Z</time>
      </trkpt>
      <trkpt lat="45.75411" lon="2.98204">
        <ele>918</ele>
        <time>2021-11-19T20:47:25Z</time>
      </trkpt>
      <trkpt lat="45.75432" lon="2.98128">
        <ele>920</ele>
        <time>2021-11-19T20:47:41Z</time>
      </trkpt>
      <trkpt lat="45.75492" lon="2.97958">
        <ele>931</ele>
        <time>2021-11-19T20:48:16Z</time>
      </trkpt>
      <trkpt lat="45.75506" lon="2.97892">
        <ele>935</ele>
        <time>2021-11-19T20:48:29Z</time>
      </trkpt>
      <trkpt lat="45.75526" lon="2.97808">
        <ele>939</ele>
        <time>2021-11-19T20:48:46Z</time>
      </trkpt>
      <trkpt lat="45.75546" lon="2.97757">
        <ele>943</ele>
        <time>2021-11-19T20:48:57Z</time>
      </trkpt>
      <trkpt lat="45.75547" lon="2.97747">
        <ele>943</ele>
        <time>2021-11-19T20:48:58Z</time>
      </trkpt>
      <trkpt lat="45.75551" lon="2.97739">
        <ele>943</ele>
        <time>2021-11-19T20:49:00Z</time>
      </trkpt>
      <trkpt lat="45.7556" lon="2.97733">
        <ele>943</ele>
        <time>2021-11-19T20:49:03Z</time>
      </trkpt>
      <trkpt lat="45.75566" lon="2.97728">
        <ele>943</ele>
        <time>2021-11-19T20:49:05Z</time>
      </trkpt>
      <trkpt lat="45.75571" lon="2.9772">
        <ele>943</ele>
        <time>2021-11-19T20:49:07Z</time>
      </trkpt>
      <trkpt lat="45.75574" lon="2.97711">
        <ele>950</ele>
        <time>2021-11-19T20:49:09Z</time>
      </trkpt>
      <trkpt lat="45.75578" lon="2.97683">
        <ele>950</ele>
        <time>2021-11-19T20:49:14Z</time>
      </trkpt>
      <trkpt lat="45.7559" lon="2.97656">
        <ele>950</ele>
        <time>2021-11-19T20:49:20Z</time>
      </trkpt>
      <trkpt lat="45.75599" lon="2.97628">
        <ele>954</ele>
        <time>2021-11-19T20:49:26Z</time>
      </trkpt>
      <trkpt lat="45.75605" lon="2.97598">
        <ele>954</ele>
        <time>2021-11-19T20:49:31Z</time>
      </trkpt>
      <trkpt lat="45.75619" lon="2.97543">
        <ele>958</ele>
        <time>2021-11-19T20:49:42Z</time>
      </trkpt>
      <trkpt lat="45.75624" lon="2.97522">
        <ele>958</ele>
        <time>2021-11-19T20:49:47Z</time>
      </trkpt>
      <trkpt lat="45.75616" lon="2.97505">
        <ele>958</ele>
        <time>2021-11-19T20:49:50Z</time>
      </trkpt>
      <trkpt lat="45.75621" lon="2.97492">
        <ele>960</ele>
        <time>2021-11-19T20:49:53Z</time>
      </trkpt>
      <trkpt lat="45.75637" lon="2.97444">
        <ele>960</ele>
        <time>2021-11-19T20:50:03Z</time>
      </trkpt>
      <trkpt lat="45.75642" lon="2.97418">
        <ele>960</ele>
        <time>2021-11-19T20:50:08Z</time>
      </trkpt>
      <trkpt lat="45.75651" lon="2.97386">
        <ele>960</ele>
        <time>2021-11-19T20:50:14Z</time>
      </trkpt>
      <trkpt lat="45.7573" lon="2.97399">
        <ele>957</ele>
        <time>2021-11-19T20:50:36Z</time>
      </trkpt>
      <trkpt lat="45.75898" lon="2.97397">
        <ele>950</ele>
        <time>2021-11-19T20:51:21Z</time>
      </trkpt>
      <trkpt lat="45.75926" lon="2.97219">
        <ele>953</ele>
        <time>2021-11-19T20:51:55Z</time>
      </trkpt>
      <trkpt lat="45.75935" lon="2.97191">
        <ele>953</ele>
        <time>2021-11-19T20:52:00Z</time>
      </trkpt>
      <trkpt lat="45.75945" lon="2.97148">
        <ele>954</ele>
        <time>2021-11-19T20:52:09Z</time>
      </trkpt>
      <trkpt lat="45.75954" lon="2.97091">
        <ele>954</ele>
        <time>2021-11-19T20:52:20Z</time>
      </trkpt>
      <trkpt lat="45.75956" lon="2.97059">
        <ele>954</ele>
        <time>2021-11-19T20:52:26Z</time>
      </trkpt>
      <trkpt lat="45.75962" lon="2.97039">
        <ele>954</ele>
        <time>2021-11-19T20:52:30Z</time>
      </trkpt>
      <trkpt lat="45.75962" lon="2.97028">
        <ele>956</ele>
        <time>2021-11-19T20:52:32Z</time>
      </trkpt>
      <trkpt lat="45.7598" lon="2.96991">
        <ele>956</ele>
        <time>2021-11-19T20:52:40Z</time>
      </trkpt>
      <trkpt lat="45.75988" lon="2.96969">
        <ele>956</ele>
        <time>2021-11-19T20:52:45Z</time>
      </trkpt>
      <trkpt lat="45.7599" lon="2.9696">
        <ele>959</ele>
        <time>2021-11-19T20:52:47Z</time>
      </trkpt>
      <trkpt lat="45.7599" lon="2.96955">
        <ele>959</ele>
        <time>2021-11-19T20:52:48Z</time>
      </trkpt>
      <trkpt lat="45.75999" lon="2.96933">
        <ele>959</ele>
        <time>2021-11-19T20:52:52Z</time>
      </trkpt>
      <trkpt lat="45.75999" lon="2.96918">
        <ele>959</ele>
        <time>2021-11-19T20:52:55Z</time>
      </trkpt>
      <trkpt lat="45.76012" lon="2.96882">
        <ele>960</ele>
        <time>2021-11-19T20:53:03Z</time>
      </trkpt>
      <trkpt lat="45.76023" lon="2.96862">
        <ele>960</ele>
        <time>2021-11-19T20:53:07Z</time>
      </trkpt>
      <trkpt lat="45.76033" lon="2.96828">
        <ele>960</ele>
        <time>2021-11-19T20:53:14Z</time>
      </trkpt>
      <trkpt lat="45.76042" lon="2.96807">
        <ele>961</ele>
        <time>2021-11-19T20:53:19Z</time>
      </trkpt>
      <trkpt lat="45.76055" lon="2.96757">
        <ele>961</ele>
        <time>2021-11-19T20:53:29Z</time>
      </trkpt>
      <trkpt lat="45.76059" lon="2.96749">
        <ele>963</ele>
        <time>2021-11-19T20:53:31Z</time>
      </trkpt>
      <trkpt lat="45.76063" lon="2.96732">
        <ele>963</ele>
        <time>2021-11-19T20:53:34Z</time>
      </trkpt>
      <trkpt lat="45.76089" lon="2.96691">
        <ele>967</ele>
        <time>2021-11-19T20:53:44Z</time>
      </trkpt>
      <trkpt lat="45.7611" lon="2.96666">
        <ele>967</ele>
        <time>2021-11-19T20:53:52Z</time>
      </trkpt>
      <trkpt lat="45.76132" lon="2.96648">
        <ele>967</ele>
        <time>2021-11-19T20:53:58Z</time>
      </trkpt>
      <trkpt lat="45.76136" lon="2.96644">
        <ele>970</ele>
        <time>2021-11-19T20:54:00Z</time>
      </trkpt>
      <trkpt lat="45.76142" lon="2.96636">
        <ele>970</ele>
        <time>2021-11-19T20:54:02Z</time>
      </trkpt>
      <trkpt lat="45.76144" lon="2.96633">
        <ele>970</ele>
        <time>2021-11-19T20:54:03Z</time>
      </trkpt>
      <trkpt lat="45.76149" lon="2.96631">
        <ele>970</ele>
        <time>2021-11-19T20:54:04Z</time>
      </trkpt>
      <trkpt lat="45.76162" lon="2.96618">
        <ele>970</ele>
        <time>2021-11-19T20:54:08Z</time>
      </trkpt>
      <trkpt lat="45.76173" lon="2.96609">
        <ele>970</ele>
        <time>2021-11-19T20:54:12Z</time>
      </trkpt>
      <trkpt lat="45.76179" lon="2.96605">
        <ele>970</ele>
        <time>2021-11-19T20:54:13Z</time>
      </trkpt>
      <trkpt lat="45.7619" lon="2.96594">
        <ele>973</ele>
        <time>2021-11-19T20:54:17Z</time>
      </trkpt>
      <trkpt lat="45.76196" lon="2.96585">
        <ele>973</ele>
        <time>2021-11-19T20:54:19Z</time>
      </trkpt>
      <trkpt lat="45.76235" lon="2.96547">
        <ele>975</ele>
        <time>2021-11-19T20:54:32Z</time>
      </trkpt>
      <trkpt lat="45.76256" lon="2.9652">
        <ele>975</ele>
        <time>2021-11-19T20:54:39Z</time>
      </trkpt>
      <trkpt lat="45.76273" lon="2.9651">
        <ele>981</ele>
        <time>2021-11-19T20:54:44Z</time>
      </trkpt>
      <trkpt lat="45.76279" lon="2.96507">
        <ele>981</ele>
        <time>2021-11-19T20:54:46Z</time>
      </trkpt>
      <trkpt lat="45.76284" lon="2.96501">
        <ele>981</ele>
        <time>2021-11-19T20:54:48Z</time>
      </trkpt>
      <trkpt lat="45.7629" lon="2.96487">
        <ele>981</ele>
        <time>2021-11-19T20:54:51Z</time>
      </trkpt>
      <trkpt lat="45.76295" lon="2.96455">
        <ele>981</ele>
        <time>2021-11-19T20:54:57Z</time>
      </trkpt>
      <trkpt lat="45.76299" lon="2.96413">
        <ele>989</ele>
        <time>2021-11-19T20:55:05Z</time>
      </trkpt>
      <trkpt lat="45.76304" lon="2.96383">
        <ele>989</ele>
        <time>2021-11-19T20:55:11Z</time>
      </trkpt>
      <trkpt lat="45.76312" lon="2.96344">
        <ele>997</ele>
        <time>2021-11-19T20:55:18Z</time>
      </trkpt>
      <trkpt lat="45.76316" lon="2.96322">
        <ele>997</ele>
        <time>2021-11-19T20:55:22Z</time>
      </trkpt>
      <trkpt lat="45.76325" lon="2.96292">
        <ele>1002</ele>
        <time>2021-11-19T20:55:29Z</time>
      </trkpt>
      <trkpt lat="45.76326" lon="2.96274">
        <ele>1002</ele>
        <time>2021-11-19T20:55:32Z</time>
      </trkpt>
      <trkpt lat="45.76333" lon="2.96221">
        <ele>1007</ele>
        <time>2021-11-19T20:55:42Z</time>
      </trkpt>
      <trkpt lat="45.76331" lon="2.96182">
        <ele>1007</ele>
        <time>2021-11-19T20:55:49Z</time>
      </trkpt>
      <trkpt lat="45.76332" lon="2.96158">
        <ele>1007</ele>
        <time>2021-11-19T20:55:54Z</time>
      </trkpt>
      <trkpt lat="45.76337" lon="2.96127">
        <ele>1014</ele>
        <time>2021-11-19T20:56:00Z</time>
      </trkpt>
      <trkpt lat="45.76338" lon="2.9611">
        <ele>1014</ele>
        <time>2021-11-19T20:56:03Z</time>
      </trkpt>
      <trkpt lat="45.7635" lon="2.96031">
        <ele>1020</ele>
        <time>2021-11-19T20:56:18Z</time>
      </trkpt>
      <trkpt lat="45.76351" lon="2.96012">
        <ele>1020</ele>
        <time>2021-11-19T20:56:21Z</time>
      </trkpt>
      <trkpt lat="45.76349" lon="2.95992">
        <ele>1020</ele>
        <time>2021-11-19T20:56:25Z</time>
      </trkpt>
      <trkpt lat="45.76348" lon="2.95898">
        <ele>1034</ele>
        <time>2021-11-19T20:56:43Z</time>
      </trkpt>
      <trkpt lat="45.76348" lon="2.95869">
        <ele>1034</ele>
        <time>2021-11-19T20:56:48Z</time>
      </trkpt>
      <trkpt lat="45.76354" lon="2.95822">
        <ele>1042</ele>
        <time>2021-11-19T20:56:57Z</time>
      </trkpt>
      <trkpt lat="45.76358" lon="2.95769">
        <ele>1042</ele>
        <time>2021-11-19T20:57:07Z</time>
      </trkpt>
      <trkpt lat="45.76368" lon="2.95746">
        <ele>1052</ele>
        <time>2021-11-19T20:57:12Z</time>
      </trkpt>
      <trkpt lat="45.76375" lon="2.95738">
        <ele>1052</ele>
        <time>2021-11-19T20:57:14Z</time>
      </trkpt>
      <trkpt lat="45.7638" lon="2.95732">
        <ele>1052</ele>
        <time>2021-11-19T20:57:16Z</time>
      </trkpt>
      <trkpt lat="45.76387" lon="2.95728">
        <ele>1052</ele>
        <time>2021-11-19T20:57:18Z</time>
      </trkpt>
      <trkpt lat="45.76397" lon="2.95728">
        <ele>1052</ele>
        <time>2021-11-19T20:57:21Z</time>
      </trkpt>
      <trkpt lat="45.76401" lon="2.95718">
        <ele>1052</ele>
        <time>2021-11-19T20:57:23Z</time>
      </trkpt>
      <trkpt lat="45.76407" lon="2.95707">
        <ele>1060</ele>
        <time>2021-11-19T20:57:26Z</time>
      </trkpt>
      <trkpt lat="45.76416" lon="2.95689">
        <ele>1060</ele>
        <time>2021-11-19T20:57:30Z</time>
      </trkpt>
      <trkpt lat="45.76419" lon="2.95684">
        <ele>1060</ele>
        <time>2021-11-19T20:57:31Z</time>
      </trkpt>
      <trkpt lat="45.76422" lon="2.95664">
        <ele>1060</ele>
        <time>2021-11-19T20:57:35Z</time>
      </trkpt>
      <trkpt lat="45.7643" lon="2.95658">
        <ele>1060</ele>
        <time>2021-11-19T20:57:37Z</time>
      </trkpt>
      <trkpt lat="45.76434" lon="2.95649">
        <ele>1068</ele>
        <time>2021-11-19T20:57:39Z</time>
      </trkpt>
      <trkpt lat="45.76432" lon="2.95636">
        <ele>1068</ele>
        <time>2021-11-19T20:57:42Z</time>
      </trkpt>
      <trkpt lat="45.7643" lon="2.95625">
        <ele>1068</ele>
        <time>2021-11-19T20:57:44Z</time>
      </trkpt>
      <trkpt lat="45.7643" lon="2.95622">
        <ele>1068</ele>
        <time>2021-11-19T20:57:44Z</time>
      </trkpt>
      <trkpt lat="45.76432" lon="2.9561">
        <ele>1068</ele>
        <time>2021-11-19T20:57:47Z</time>
      </trkpt>
      <trkpt lat="45.76443" lon="2.95591">
        <ele>1068</ele>
        <time>2021-11-19T20:57:51Z</time>
      </trkpt>
      <trkpt lat="45.76445" lon="2.95567">
        <ele>1074</ele>
        <time>2021-11-19T20:57:56Z</time>
      </trkpt>
      <trkpt lat="45.76447" lon="2.95557">
        <ele>1074</ele>
        <time>2021-11-19T20:57:58Z</time>
      </trkpt>
      <trkpt lat="45.76439" lon="2.95537">
        <ele>1074</ele>
        <time>2021-11-19T20:58:02Z</time>
      </trkpt>
      <trkpt lat="45.76574" lon="2.95488">
        <ele>1090</ele>
        <time>2021-11-19T20:58:39Z</time>
      </trkpt>
      <trkpt lat="45.7663" lon="2.95441">
        <ele>1095</ele>
        <time>2021-11-19T20:58:57Z</time>
      </trkpt>
      <trkpt lat="45.76671" lon="2.9542">
        <ele>1098</ele>
        <time>2021-11-19T20:59:08Z</time>
      </trkpt>
      <trkpt lat="45.76727" lon="2.95409">
        <ele>1099</ele>
        <time>2021-11-19T20:59:23Z</time>
      </trkpt>
      <trkpt lat="45.76784" lon="2.95417">
        <ele>1099</ele>
        <time>2021-11-19T20:59:39Z</time>
      </trkpt>
      <trkpt lat="45.76976" lon="2.95324">
        <ele>1087</ele>
        <time>2021-11-19T21:00:33Z</time>
      </trkpt>
      <trkpt lat="45.77004" lon="2.95319">
        <ele>1089</ele>
        <time>2021-11-19T21:00:40Z</time>
      </trkpt>
      <trkpt lat="45.77148" lon="2.95229">
        <ele>1097</ele>
        <time>2021-11-19T21:01:22Z</time>
      </trkpt>
      <trkpt lat="45.77187" lon="2.95226">
        <ele>1097</ele>
        <time>2021-11-19T21:01:33Z</time>
      </trkpt>
      <trkpt lat="45.77241" lon="2.95203">
        <ele>1096</ele>
        <time>2021-11-19T21:01:48Z</time>
      </trkpt>
      <trkpt lat="45.77381" lon="2.95188">
        <ele>1085</ele>
        <time>2021-11-19T21:02:25Z</time>
      </trkpt>
      <trkpt lat="45.7745" lon="2.95197">
        <ele>1084</ele>
        <time>2021-11-19T21:02:44Z</time>
      </trkpt>
      <trkpt lat="45.77518" lon="2.95216">
        <ele>1081</ele>
        <time>2021-11-19T21:03:02Z</time>
      </trkpt>
      <trkpt lat="45.77575" lon="2.95288">
        <ele>1080</ele>
        <time>2021-11-19T21:03:23Z</time>
      </trkpt>
      <trkpt lat="45.77609" lon="2.95281">
        <ele>1080</ele>
        <time>2021-11-19T21:03:32Z</time>
      </trkpt>
      <trkpt lat="45.77634" lon="2.95263">
        <ele>1080</ele>
        <time>2021-11-19T21:03:39Z</time>
      </trkpt>
      <trkpt lat="45.77705" lon="2.95235">
        <ele>1081</ele>
        <time>2021-11-19T21:03:59Z</time>
      </trkpt>
      <trkpt lat="45.7774" lon="2.9524">
        <ele>1076</ele>
        <time>2021-11-19T21:04:08Z</time>
      </trkpt>
      <trkpt lat="45.7777" lon="2.95254">
        <ele>1074</ele>
        <time>2021-11-19T21:04:17Z</time>
      </trkpt>
      <trkpt lat="45.77798" lon="2.95254">
        <ele>1074</ele>
        <time>2021-11-19T21:04:24Z</time>
      </trkpt>
      <trkpt lat="45.77856" lon="2.95274">
        <ele>1077</ele>
        <time>2021-11-19T21:04:40Z</time>
      </trkpt>
      <trkpt lat="45.7794" lon="2.95333">
        <ele>1082</ele>
        <time>2021-11-19T21:05:05Z</time>
      </trkpt>
      <trkpt lat="45.77953" lon="2.95339">
        <ele>1082</ele>
        <time>2021-11-19T21:05:09Z</time>
      </trkpt>
      <trkpt lat="45.78013" lon="2.95366">
        <ele>1081</ele>
        <time>2021-11-19T21:05:26Z</time>
      </trkpt>
      <trkpt lat="45.78034" lon="2.95395">
        <ele>1079</ele>
        <time>2021-11-19T21:05:33Z</time>
      </trkpt>
      <trkpt lat="45.78076" lon="2.95526">
        <ele>1077</ele>
        <time>2021-11-19T21:06:00Z</time>
      </trkpt>
      <trkpt lat="45.78104" lon="2.95566">
        <ele>1077</ele>
        <time>2021-11-19T21:06:11Z</time>
      </trkpt>
      <trkpt lat="45.78119" lon="2.95616">
        <ele>1082</ele>
        <time>2021-11-19T21:06:21Z</time>
      </trkpt>
      <trkpt lat="45.78134" lon="2.95638">
        <ele>1086</ele>
        <time>2021-11-19T21:06:27Z</time>
      </trkpt>
      <trkpt lat="45.78159" lon="2.95727">
        <ele>1085</ele>
        <time>2021-11-19T21:06:45Z</time>
      </trkpt>
      <trkpt lat="45.78184" lon="2.95767">
        <ele>1085</ele>
        <time>2021-11-19T21:06:55Z</time>
      </trkpt>
      <trkpt lat="45.78198" lon="2.95798">
        <ele>1082</ele>
        <time>2021-11-19T21:07:01Z</time>
      </trkpt>
      <trkpt lat="45.78209" lon="2.95811">
        <ele>1082</ele>
        <time>2021-11-19T21:07:05Z</time>
      </trkpt>
      <trkpt lat="45.78211" lon="2.95818">
        <ele>1082</ele>
        <time>2021-11-19T21:07:07Z</time>
      </trkpt>
      <trkpt lat="45.78218" lon="2.95839">
        <ele>1078</ele>
        <time>2021-11-19T21:07:11Z</time>
      </trkpt>
      <trkpt lat="45.78267" lon="2.95984">
        <ele>1076</ele>
        <time>2021-11-19T21:07:41Z</time>
      </trkpt>
      <trkpt lat="45.78285" lon="2.96052">
        <ele>1079</ele>
        <time>2021-11-19T21:07:55Z</time>
      </trkpt>
      <trkpt lat="45.78326" lon="2.96112">
        <ele>1084</ele>
        <time>2021-11-19T21:08:10Z</time>
      </trkpt>
      <trkpt lat="45.78353" lon="2.96124">
        <ele>1084</ele>
        <time>2021-11-19T21:08:18Z</time>
      </trkpt>
      <trkpt lat="45.78457" lon="2.96105">
        <ele>1087</ele>
        <time>2021-11-19T21:08:46Z</time>
      </trkpt>
      <trkpt lat="45.78486" lon="2.96122">
        <ele>1086</ele>
        <time>2021-11-19T21:08:54Z</time>
      </trkpt>
      <trkpt lat="45.7851" lon="2.96158">
        <ele>1086</ele>
        <time>2021-11-19T21:09:03Z</time>
      </trkpt>
      <trkpt lat="45.78504" lon="2.96178">
        <ele>1086</ele>
        <time>2021-11-19T21:09:07Z</time>
      </trkpt>
      <trkpt lat="45.7849" lon="2.96193">
        <ele>1086</ele>
        <time>2021-11-19T21:09:12Z</time>
      </trkpt>
      <trkpt lat="45.78472" lon="2.96206">
        <ele>1086</ele>
        <time>2021-11-19T21:09:18Z</time>
      </trkpt>
      <trkpt lat="45.78458" lon="2.96207">
        <ele>1086</ele>
        <time>2021-11-19T21:09:21Z</time>
      </trkpt>
      <trkpt lat="45.78447" lon="2.96209">
        <ele>1092</ele>
        <time>2021-11-19T21:09:24Z</time>
      </trkpt>
      <trkpt lat="45.78408" lon="2.96246">
        <ele>1092</ele>
        <time>2021-11-19T21:09:37Z</time>
      </trkpt>
      <trkpt lat="45.78391" lon="2.96284">
        <ele>1098</ele>
        <time>2021-11-19T21:09:45Z</time>
      </trkpt>
      <trkpt lat="45.78379" lon="2.96333">
        <ele>1103</ele>
        <time>2021-11-19T21:09:55Z</time>
      </trkpt>
      <trkpt lat="45.78374" lon="2.96388">
        <ele>1108</ele>
        <time>2021-11-19T21:10:05Z</time>
      </trkpt>
      <trkpt lat="45.78372" lon="2.96418">
        <ele>1108</ele>
        <time>2021-11-19T21:10:11Z</time>
      </trkpt>
      <trkpt lat="45.78378" lon="2.9646">
        <ele>1110</ele>
        <time>2021-11-19T21:10:19Z</time>
      </trkpt>
      <trkpt lat="45.78382" lon="2.96478">
        <ele>1110</ele>
        <time>2021-11-19T21:10:22Z</time>
      </trkpt>
      <trkpt lat="45.78384" lon="2.96503">
        <ele>1110</ele>
        <time>2021-11-19T21:10:27Z</time>
      </trkpt>
      <trkpt lat="45.78387" lon="2.96518">
        <ele>1119</ele>
        <time>2021-11-19T21:10:30Z</time>
      </trkpt>
      <trkpt lat="45.78391" lon="2.96533">
        <ele>1119</ele>
        <time>2021-11-19T21:10:33Z</time>
      </trkpt>
      <trkpt lat="45.78389" lon="2.96551">
        <ele>1119</ele>
        <time>2021-11-19T21:10:36Z</time>
      </trkpt>
      <trkpt lat="45.7839" lon="2.96565">
        <ele>1119</ele>
        <time>2021-11-19T21:10:39Z</time>
      </trkpt>
      <trkpt lat="45.78391" lon="2.96578">
        <ele>1119</ele>
        <time>2021-11-19T21:10:41Z</time>
      </trkpt>
      <trkpt lat="45.78391" lon="2.96588">
        <ele>1119</ele>
        <time>2021-11-19T21:10:43Z</time>
      </trkpt>
      <trkpt lat="45.78396" lon="2.96594">
        <ele>1125</ele>
        <time>2021-11-19T21:10:45Z</time>
      </trkpt>
      <trkpt lat="45.78398" lon="2.96597">
        <ele>1125</ele>
        <time>2021-11-19T21:10:46Z</time>
      </trkpt>
      <trkpt lat="45.78404" lon="2.96629">
        <ele>1125</ele>
        <time>2021-11-19T21:10:52Z</time>
      </trkpt>
      <trkpt lat="45.78412" lon="2.96652">
        <ele>1125</ele>
        <time>2021-11-19T21:10:57Z</time>
      </trkpt>
      <trkpt lat="45.78421" lon="2.96686">
        <ele>1127</ele>
        <time>2021-11-19T21:11:03Z</time>
      </trkpt>
      <trkpt lat="45.7843" lon="2.96729">
        <ele>1127</ele>
        <time>2021-11-19T21:11:12Z</time>
      </trkpt>
      <trkpt lat="45.78434" lon="2.96762">
        <ele>1126</ele>
        <time>2021-11-19T21:11:18Z</time>
      </trkpt>
      <trkpt lat="45.78439" lon="2.96777">
        <ele>1126</ele>
        <time>2021-11-19T21:11:21Z</time>
      </trkpt>
      <trkpt lat="45.78442" lon="2.96786">
        <ele>1126</ele>
        <time>2021-11-19T21:11:23Z</time>
      </trkpt>
      <trkpt lat="45.78445" lon="2.968">
        <ele>1126</ele>
        <time>2021-11-19T21:11:26Z</time>
      </trkpt>
      <trkpt lat="45.78452" lon="2.96819">
        <ele>1125</ele>
        <time>2021-11-19T21:11:30Z</time>
      </trkpt>
      <trkpt lat="45.78465" lon="2.96846">
        <ele>1125</ele>
        <time>2021-11-19T21:11:36Z</time>
      </trkpt>
      <trkpt lat="45.78487" lon="2.96881">
        <ele>1123</ele>
        <time>2021-11-19T21:11:45Z</time>
      </trkpt>
      <trkpt lat="45.78496" lon="2.96901">
        <ele>1123</ele>
        <time>2021-11-19T21:11:49Z</time>
      </trkpt>
      <trkpt lat="45.78512" lon="2.96957">
        <ele>1121</ele>
        <time>2021-11-19T21:12:00Z</time>
      </trkpt>
      <trkpt lat="45.78529" lon="2.9702">
        <ele>1121</ele>
        <time>2021-11-19T21:12:13Z</time>
      </trkpt>
      <trkpt lat="45.78526" lon="2.97042">
        <ele>1121</ele>
        <time>2021-11-19T21:12:17Z</time>
      </trkpt>
      <trkpt lat="45.78518" lon="2.97064">
        <ele>1121</ele>
        <time>2021-11-19T21:12:22Z</time>
      </trkpt>
      <trkpt lat="45.78509" lon="2.97105">
        <ele>1121</ele>
        <time>2021-11-19T21:12:30Z</time>
      </trkpt>
      <trkpt lat="45.78492" lon="2.97148">
        <ele>1121</ele>
        <time>2021-11-19T21:12:39Z</time>
      </trkpt>
      <trkpt lat="45.78487" lon="2.97171">
        <ele>1115</ele>
        <time>2021-11-19T21:12:43Z</time>
      </trkpt>
      <trkpt lat="45.78502" lon="2.97197">
        <ele>1115</ele>
        <time>2021-11-19T21:12:50Z</time>
      </trkpt>
      <trkpt lat="45.78535" lon="2.97216">
        <ele>1106</ele>
        <time>2021-11-19T21:12:59Z</time>
      </trkpt>
      <trkpt lat="45.78581" lon="2.97227">
        <ele>1100</ele>
        <time>2021-11-19T21:13:12Z</time>
      </trkpt>
      <trkpt lat="45.78598" lon="2.97234">
        <ele>1100</ele>
        <time>2021-11-19T21:13:16Z</time>
      </trkpt>
      <trkpt lat="45.78591" lon="2.97255">
        <ele>1100</ele>
        <time>2021-11-19T21:13:21Z</time>
      </trkpt>
      <trkpt lat="45.7857" lon="2.97302">
        <ele>1096</ele>
        <time>2021-11-19T21:13:31Z</time>
      </trkpt>
      <trkpt lat="45.78538" lon="2.97361">
        <ele>1090</ele>
        <time>2021-11-19T21:13:45Z</time>
      </trkpt>
      <trkpt lat="45.78471" lon="2.97505">
        <ele>1066</ele>
        <time>2021-11-19T21:14:17Z</time>
      </trkpt>
      <trkpt lat="45.78424" lon="2.97616">
        <ele>1057</ele>
        <time>2021-11-19T21:14:41Z</time>
      </trkpt>
      <trkpt lat="45.78361" lon="2.97733">
        <ele>1044</ele>
        <time>2021-11-19T21:15:09Z</time>
      </trkpt>
      <trkpt lat="45.78332" lon="2.97772">
        <ele>1037</ele>
        <time>2021-11-19T21:15:20Z</time>
      </trkpt>
      <trkpt lat="45.78248" lon="2.97838">
        <ele>1023</ele>
        <time>2021-11-19T21:15:45Z</time>
      </trkpt>
      <trkpt lat="45.78198" lon="2.9789">
        <ele>1014</ele>
        <time>2021-11-19T21:16:02Z</time>
      </trkpt>
      <trkpt lat="45.78172" lon="2.97909">
        <ele>1014</ele>
        <time>2021-11-19T21:16:10Z</time>
      </trkpt>
      <trkpt lat="45.78157" lon="2.97913">
        <ele>1014</ele>
        <time>2021-11-19T21:16:14Z</time>
      </trkpt>
      <trkpt lat="45.78175" lon="2.9812">
        <ele>989</ele>
        <time>2021-11-19T21:16:52Z</time>
      </trkpt>
      <trkpt lat="45.78168" lon="2.98184">
        <ele>982</ele>
        <time>2021-11-19T21:17:05Z</time>
      </trkpt>
      <trkpt lat="45.78148" lon="2.98294">
        <ele>974</ele>
        <time>2021-11-19T21:17:26Z</time>
      </trkpt>
      <trkpt lat="45.7814" lon="2.98375">
        <ele>967</ele>
        <time>2021-11-19T21:17:41Z</time>
      </trkpt>
      <trkpt lat="45.78139" lon="2.98431">
        <ele>959</ele>
        <time>2021-11-19T21:17:51Z</time>
      </trkpt>
      <trkpt lat="45.78138" lon="2.9852">
        <ele>953</ele>
        <time>2021-11-19T21:18:08Z</time>
      </trkpt>
      <trkpt lat="45.78124" lon="2.98583">
        <ele>947</ele>
        <time>2021-11-19T21:18:20Z</time>
      </trkpt>
      <trkpt lat="45.7812" lon="2.98612">
        <ele>947</ele>
        <time>2021-11-19T21:18:26Z</time>
      </trkpt>
      <trkpt lat="45.7812" lon="2.98668">
        <ele>942</ele>
        <time>2021-11-19T21:18:36Z</time>
      </trkpt>
      <trkpt lat="45.78118" lon="2.98734">
        <ele>938</ele>
        <time>2021-11-19T21:18:49Z</time>
      </trkpt>
      <trkpt lat="45.78118" lon="2.98823">
        <ele>934</ele>
        <time>2021-11-19T21:19:05Z</time>
      </trkpt>
      <trkpt lat="45.78118" lon="2.98868">
        <ele>930</ele>
        <time>2021-11-19T21:19:14Z</time>
      </trkpt>
      <trkpt lat="45.78118" lon="2.98903">
        <ele>930</ele>
        <time>2021-11-19T21:19:20Z</time>
      </trkpt>
      <trkpt lat="45.78116" lon="2.98967">
        <ele>927</ele>
        <time>2021-11-19T21:19:32Z</time>
      </trkpt>
      <trkpt lat="45.78114" lon="2.98995">
        <ele>927</ele>
        <time>2021-11-19T21:19:37Z</time>
      </trkpt>
      <trkpt lat="45.78112" lon="2.99015">
        <ele>924</ele>
        <time>2021-11-19T21:19:41Z</time>
      </trkpt>
      <trkpt lat="45.7811" lon="2.99037">
        <ele>924</ele>
        <time>2021-11-19T21:19:45Z</time>
      </trkpt>
      <trkpt lat="45.78107" lon="2.99076">
        <ele>924</ele>
        <time>2021-11-19T21:19:52Z</time>
      </trkpt>
      <trkpt lat="45.78102" lon="2.9912">
        <ele>921</ele>
        <time>2021-11-19T21:20:01Z</time>
      </trkpt>
      <trkpt lat="45.78093" lon="2.99169">
        <ele>918</ele>
        <time>2021-11-19T21:20:10Z</time>
      </trkpt>
      <trkpt lat="45.78082" lon="2.9921">
        <ele>918</ele>
        <time>2021-11-19T21:20:18Z</time>
      </trkpt>
      <trkpt lat="45.78071" lon="2.99236">
        <ele>918</ele>
        <time>2021-11-19T21:20:24Z</time>
      </trkpt>
      <trkpt lat="45.78059" lon="2.9926">
        <ele>914</ele>
        <time>2021-11-19T21:20:30Z</time>
      </trkpt>
      <trkpt lat="45.78036" lon="2.99321">
        <ele>909</ele>
        <time>2021-11-19T21:20:42Z</time>
      </trkpt>
      <trkpt lat="45.78029" lon="2.99323">
        <ele>909</ele>
        <time>2021-11-19T21:20:44Z</time>
      </trkpt>
      <trkpt lat="45.78011" lon="2.99357">
        <ele>909</ele>
        <time>2021-11-19T21:20:52Z</time>
      </trkpt>
      <trkpt lat="45.7799" lon="2.99389">
        <ele>905</ele>
        <time>2021-11-19T21:21:01Z</time>
      </trkpt>
      <trkpt lat="45.77978" lon="2.99403">
        <ele>905</ele>
        <time>2021-11-19T21:21:05Z</time>
      </trkpt>
      <trkpt lat="45.77969" lon="2.99419">
        <ele>901</ele>
        <time>2021-11-19T21:21:08Z</time>
      </trkpt>
      <trkpt lat="45.7795" lon="2.99438">
        <ele>901</ele>
        <time>2021-11-19T21:21:15Z</time>
      </trkpt>
      <trkpt lat="45.77929" lon="2.99455">
        <ele>901</ele>
        <time>2021-11-19T21:21:21Z</time>
      </trkpt>
      <trkpt lat="45.77896" lon="2.99484">
        <ele>900</ele>
        <time>2021-11-19T21:21:31Z</time>
      </trkpt>
      <trkpt lat="45.77894" lon="2.99485">
        <ele>900</ele>
        <time>2021-11-19T21:21:32Z</time>
      </trkpt>
      <trkpt lat="45.77871" lon="2.99508">
        <ele>899</ele>
        <time>2021-11-19T21:21:40Z</time>
      </trkpt>
      <trkpt lat="45.77853" lon="2.99532">
        <ele>899</ele>
        <time>2021-11-19T21:21:46Z</time>
      </trkpt>
      <trkpt lat="45.77842" lon="2.99545">
        <ele>899</ele>
        <time>2021-11-19T21:21:50Z</time>
      </trkpt>
      <trkpt lat="45.77824" lon="2.99556">
        <ele>897</ele>
        <time>2021-11-19T21:21:55Z</time>
      </trkpt>
      <trkpt lat="45.77794" lon="2.9958">
        <ele>897</ele>
        <time>2021-11-19T21:22:04Z</time>
      </trkpt>
      <trkpt lat="45.77768" lon="2.99602">
        <ele>896</ele>
        <time>2021-11-19T21:22:12Z</time>
      </trkpt>
      <trkpt lat="45.77736" lon="2.99622">
        <ele>896</ele>
        <time>2021-11-19T21:22:22Z</time>
      </trkpt>
      <trkpt lat="45.77714" lon="2.99639">
        <ele>896</ele>
        <time>2021-11-19T21:22:28Z</time>
      </trkpt>
      <trkpt lat="45.77698" lon="2.9966">
        <ele>896</ele>
        <time>2021-11-19T21:22:34Z</time>
      </trkpt>
      <trkpt lat="45.77683" lon="2.99685">
        <ele>895</ele>
        <time>2021-11-19T21:22:40Z</time>
      </trkpt>
      <trkpt lat="45.77669" lon="2.9971">
        <ele>895</ele>
        <time>2021-11-19T21:22:46Z</time>
      </trkpt>
      <trkpt lat="45.77655" lon="2.99727">
        <ele>893</ele>
        <time>2021-11-19T21:22:51Z</time>
      </trkpt>
      <trkpt lat="45.7765" lon="2.99743">
        <ele>893</ele>
        <time>2021-11-19T21:22:54Z</time>
      </trkpt>
      <trkpt lat="45.77647" lon="2.99767">
        <ele>893</ele>
        <time>2021-11-19T21:22:59Z</time>
      </trkpt>
      <trkpt lat="45.77643" lon="2.99776">
        <ele>893</ele>
        <time>2021-11-19T21:23:01Z</time>
      </trkpt>
      <trkpt lat="45.77639" lon="2.99778">
        <ele>893</ele>
        <time>2021-11-19T21:23:02Z</time>
      </trkpt>
      <trkpt lat="45.77632" lon="2.99775">
        <ele>893</ele>
        <time>2021-11-19T21:23:04Z</time>
      </trkpt>
      <trkpt lat="45.77623" lon="2.99772">
        <ele>892</ele>
        <time>2021-11-19T21:23:07Z</time>
      </trkpt>
      <trkpt lat="45.77617" lon="2.99772">
        <ele>892</ele>
        <time>2021-11-19T21:23:08Z</time>
      </trkpt>
      <trkpt lat="45.77612" lon="2.99775">
        <ele>892</ele>
        <time>2021-11-19T21:23:10Z</time>
      </trkpt>
      <trkpt lat="45.77604" lon="2.99783">
        <ele>892</ele>
        <time>2021-11-19T21:23:12Z</time>
      </trkpt>
      <trkpt lat="45.77589" lon="2.998">
        <ele>892</ele>
        <time>2021-11-19T21:23:17Z</time>
      </trkpt>
      <trkpt lat="45.77576" lon="2.99817">
        <ele>890</ele>
        <time>2021-11-19T21:23:22Z</time>
      </trkpt>
      <trkpt lat="45.77569" lon="2.99832">
        <ele>890</ele>
        <time>2021-11-19T21:23:25Z</time>
      </trkpt>
      <trkpt lat="45.77558" lon="2.99852">
        <ele>890</ele>
        <time>2021-11-19T21:23:30Z</time>
      </trkpt>
      <trkpt lat="45.77546" lon="2.99874">
        <ele>887</ele>
        <time>2021-11-19T21:23:35Z</time>
      </trkpt>
      <trkpt lat="45.7754" lon="2.99883">
        <ele>887</ele>
        <time>2021-11-19T21:23:38Z</time>
      </trkpt>
      <trkpt lat="45.775" lon="2.99957">
        <ele>884</ele>
        <time>2021-11-19T21:23:55Z</time>
      </trkpt>
      <trkpt lat="45.77467" lon="3.00001">
        <ele>878</ele>
        <time>2021-11-19T21:24:07Z</time>
      </trkpt>
      <trkpt lat="45.77457" lon="3.00018">
        <ele>878</ele>
        <time>2021-11-19T21:24:11Z</time>
      </trkpt>
      <trkpt lat="45.77423" lon="3.00085">
        <ele>873</ele>
        <time>2021-11-19T21:24:27Z</time>
      </trkpt>
      <trkpt lat="45.77366" lon="3.00166">
        <ele>869</ele>
        <time>2021-11-19T21:24:48Z</time>
      </trkpt>
      <trkpt lat="45.77343" lon="3.00206">
        <ele>864</ele>
        <time>2021-11-19T21:24:58Z</time>
      </trkpt>
      <trkpt lat="45.7734" lon="3.00213">
        <ele>864</ele>
        <time>2021-11-19T21:24:59Z</time>
      </trkpt>
      <trkpt lat="45.77319" lon="3.00267">
        <ele>863</ele>
        <time>2021-11-19T21:25:11Z</time>
      </trkpt>
      <trkpt lat="45.77283" lon="3.00328">
        <ele>861</ele>
        <time>2021-11-19T21:25:26Z</time>
      </trkpt>
      <trkpt lat="45.77249" lon="3.0038">
        <ele>859</ele>
        <time>2021-11-19T21:25:39Z</time>
      </trkpt>
      <trkpt lat="45.77234" lon="3.00397">
        <ele>859</ele>
        <time>2021-11-19T21:25:44Z</time>
      </trkpt>
      <trkpt lat="45.77198" lon="3.00426">
        <ele>855</ele>
        <time>2021-11-19T21:25:55Z</time>
      </trkpt>
      <trkpt lat="45.77193" lon="3.00437">
        <ele>855</ele>
        <time>2021-11-19T21:25:58Z</time>
      </trkpt>
      <trkpt lat="45.77182" lon="3.00459">
        <ele>851</ele>
        <time>2021-11-19T21:26:03Z</time>
      </trkpt>
      <trkpt lat="45.7715" lon="3.00539">
        <ele>848</ele>
        <time>2021-11-19T21:26:20Z</time>
      </trkpt>
      <trkpt lat="45.77122" lon="3.00608">
        <ele>845</ele>
        <time>2021-11-19T21:26:35Z</time>
      </trkpt>
      <trkpt lat="45.77113" lon="3.00634">
        <ele>845</ele>
        <time>2021-11-19T21:26:40Z</time>
      </trkpt>
      <trkpt lat="45.77117" lon="3.00642">
        <ele>845</ele>
        <time>2021-11-19T21:26:42Z</time>
      </trkpt>
      <trkpt lat="45.77102" lon="3.00685">
        <ele>841</ele>
        <time>2021-11-19T21:26:51Z</time>
      </trkpt>
      <trkpt lat="45.7709" lon="3.00719">
        <ele>841</ele>
        <time>2021-11-19T21:26:58Z</time>
      </trkpt>
      <trkpt lat="45.77078" lon="3.00744">
        <ele>836</ele>
        <time>2021-11-19T21:27:04Z</time>
      </trkpt>
      <trkpt lat="45.77063" lon="3.00779">
        <ele>836</ele>
        <time>2021-11-19T21:27:11Z</time>
      </trkpt>
      <trkpt lat="45.77041" lon="3.00809">
        <ele>830</ele>
        <time>2021-11-19T21:27:19Z</time>
      </trkpt>
      <trkpt lat="45.77025" lon="3.00824">
        <ele>830</ele>
        <time>2021-11-19T21:27:25Z</time>
      </trkpt>
      <trkpt lat="45.77018" lon="3.00831">
        <ele>830</ele>
        <time>2021-11-19T21:27:27Z</time>
      </trkpt>
      <trkpt lat="45.77003" lon="3.00869">
        <ele>827</ele>
        <time>2021-11-19T21:27:35Z</time>
      </trkpt>
      <trkpt lat="45.76999" lon="3.00875">
        <ele>827</ele>
        <time>2021-11-19T21:27:37Z</time>
      </trkpt>
      <trkpt lat="45.7699" lon="3.00897">
        <ele>827</ele>
        <time>2021-11-19T21:27:41Z</time>
      </trkpt>
      <trkpt lat="45.76982" lon="3.00915">
        <ele>823</ele>
        <time>2021-11-19T21:27:45Z</time>
      </trkpt>
      <trkpt lat="45.76978" lon="3.00922">
        <ele>823</ele>
        <time>2021-11-19T21:27:47Z</time>
      </trkpt>
      <trkpt lat="45.76977" lon="3.00925">
        <ele>823</ele>
        <time>2021-11-19T21:27:48Z</time>
      </trkpt>
      <trkpt lat="45.76974" lon="3.00936">
        <ele>823</ele>
        <time>2021-11-19T21:27:50Z</time>
      </trkpt>
      <trkpt lat="45.76952" lon="3.00946">
        <ele>823</ele>
        <time>2021-11-19T21:27:56Z</time>
      </trkpt>
      <trkpt lat="45.76953" lon="3.00957">
        <ele>823</ele>
        <time>2021-11-19T21:27:58Z</time>
      </trkpt>
      <trkpt lat="45.76956" lon="3.00986">
        <ele>821</ele>
        <time>2021-11-19T21:28:03Z</time>
      </trkpt>
      <trkpt lat="45.76956" lon="3.00995">
        <ele>821</ele>
        <time>2021-11-19T21:28:05Z</time>
      </trkpt>
      <trkpt lat="45.76957" lon="3.0101">
        <ele>821</ele>
        <time>2021-11-19T21:28:08Z</time>
      </trkpt>
      <trkpt lat="45.76957" lon="3.01018">
        <ele>821</ele>
        <time>2021-11-19T21:28:09Z</time>
      </trkpt>
      <trkpt lat="45.76956" lon="3.01022">
        <ele>821</ele>
        <time>2021-11-19T21:28:10Z</time>
      </trkpt>
      <trkpt lat="45.76954" lon="3.01038">
        <ele>821</ele>
        <time>2021-11-19T21:28:13Z</time>
      </trkpt>
      <trkpt lat="45.76949" lon="3.01064">
        <ele>818</ele>
        <time>2021-11-19T21:28:18Z</time>
      </trkpt>
      <trkpt lat="45.7694" lon="3.0111">
        <ele>818</ele>
        <time>2021-11-19T21:28:27Z</time>
      </trkpt>
      <trkpt lat="45.76945" lon="3.01125">
        <ele>815</ele>
        <time>2021-11-19T21:28:30Z</time>
      </trkpt>
      <trkpt lat="45.76943" lon="3.01211">
        <ele>812</ele>
        <time>2021-11-19T21:28:46Z</time>
      </trkpt>
      <trkpt lat="45.7694" lon="3.01268">
        <ele>812</ele>
        <time>2021-11-19T21:28:57Z</time>
      </trkpt>
      <trkpt lat="45.76939" lon="3.01318">
        <ele>806</ele>
        <time>2021-11-19T21:29:06Z</time>
      </trkpt>
      <trkpt lat="45.76938" lon="3.01368">
        <ele>801</ele>
        <time>2021-11-19T21:29:16Z</time>
      </trkpt>
      <trkpt lat="45.76941" lon="3.0141">
        <ele>801</ele>
        <time>2021-11-19T21:29:24Z</time>
      </trkpt>
      <trkpt lat="45.76941" lon="3.01431">
        <ele>801</ele>
        <time>2021-11-19T21:29:27Z</time>
      </trkpt>
      <trkpt lat="45.76941" lon="3.01448">
        <ele>798</ele>
        <time>2021-11-19T21:29:31Z</time>
      </trkpt>
      <trkpt lat="45.7693" lon="3.0144">
        <ele>798</ele>
        <time>2021-11-19T21:29:34Z</time>
      </trkpt>
      <trkpt lat="45.76922" lon="3.01475">
        <ele>798</ele>
        <time>2021-11-19T21:29:41Z</time>
      </trkpt>
      <trkpt lat="45.76917" lon="3.01509">
        <ele>795</ele>
        <time>2021-11-19T21:29:47Z</time>
      </trkpt>
      <trkpt lat="45.76913" lon="3.01541">
        <ele>795</ele>
        <time>2021-11-19T21:29:53Z</time>
      </trkpt>
      <trkpt lat="45.7691" lon="3.01553">
        <ele>795</ele>
        <time>2021-11-19T21:29:56Z</time>
      </trkpt>
      <trkpt lat="45.76908" lon="3.01562">
        <ele>792</ele>
        <time>2021-11-19T21:29:57Z</time>
      </trkpt>
      <trkpt lat="45.76911" lon="3.0157">
        <ele>792</ele>
        <time>2021-11-19T21:29:59Z</time>
      </trkpt>
      <trkpt lat="45.76913" lon="3.01578">
        <ele>792</ele>
        <time>2021-11-19T21:30:01Z</time>
      </trkpt>
      <trkpt lat="45.76915" lon="3.01589">
        <ele>792</ele>
        <time>2021-11-19T21:30:03Z</time>
      </trkpt>
      <trkpt lat="45.76915" lon="3.016">
        <ele>792</ele>
        <time>2021-11-19T21:30:05Z</time>
      </trkpt>
      <trkpt lat="45.76914" lon="3.01611">
        <ele>792</ele>
        <time>2021-11-19T21:30:07Z</time>
      </trkpt>
      <trkpt lat="45.76913" lon="3.0162">
        <ele>792</ele>
        <time>2021-11-19T21:30:09Z</time>
      </trkpt>
      <trkpt lat="45.76901" lon="3.01659">
        <ele>789</ele>
        <time>2021-11-19T21:30:17Z</time>
      </trkpt>
      <trkpt lat="45.76893" lon="3.01666">
        <ele>789</ele>
        <time>2021-11-19T21:30:19Z</time>
      </trkpt>
      <trkpt lat="45.76894" lon="3.01677">
        <ele>789</ele>
        <time>2021-11-19T21:30:21Z</time>
      </trkpt>
      <trkpt lat="45.76894" lon="3.01686">
        <ele>789</ele>
        <time>2021-11-19T21:30:23Z</time>
      </trkpt>
      <trkpt lat="45.76893" lon="3.01694">
        <ele>789</ele>
        <time>2021-11-19T21:30:24Z</time>
      </trkpt>
      <trkpt lat="45.7689" lon="3.01708">
        <ele>786</ele>
        <time>2021-11-19T21:30:27Z</time>
      </trkpt>
      <trkpt lat="45.76889" lon="3.01711">
        <ele>786</ele>
        <time>2021-11-19T21:30:28Z</time>
      </trkpt>
      <trkpt lat="45.76878" lon="3.01749">
        <ele>786</ele>
        <time>2021-11-19T21:30:35Z</time>
      </trkpt>
      <trkpt lat="45.76866" lon="3.01785">
        <ele>783</ele>
        <time>2021-11-19T21:30:43Z</time>
      </trkpt>
      <trkpt lat="45.76865" lon="3.0179">
        <ele>783</ele>
        <time>2021-11-19T21:30:44Z</time>
      </trkpt>
      <trkpt lat="45.7686" lon="3.01851">
        <ele>783</ele>
        <time>2021-11-19T21:30:55Z</time>
      </trkpt>
      <trkpt lat="45.76861" lon="3.01913">
        <ele>781</ele>
        <time>2021-11-19T21:31:07Z</time>
      </trkpt>
      <trkpt lat="45.76883" lon="3.01997">
        <ele>780</ele>
        <time>2021-11-19T21:31:23Z</time>
      </trkpt>
      <trkpt lat="45.7689" lon="3.02057">
        <ele>774</ele>
        <time>2021-11-19T21:31:35Z</time>
      </trkpt>
      <trkpt lat="45.76887" lon="3.02065">
        <ele>774</ele>
        <time>2021-11-19T21:31:37Z</time>
      </trkpt>
      <trkpt lat="45.76887" lon="3.02078">
        <ele>774</ele>
        <time>2021-11-19T21:31:39Z</time>
      </trkpt>
      <trkpt lat="45.76899" lon="3.02134">
        <ele>767</ele>
        <time>2021-11-19T21:31:50Z</time>
      </trkpt>
      <trkpt lat="45.7692" lon="3.02167">
        <ele>763</ele>
        <time>2021-11-19T21:31:58Z</time>
      </trkpt>
      <trkpt lat="45.76932" lon="3.0219">
        <ele>763</ele>
        <time>2021-11-19T21:32:04Z</time>
      </trkpt>
      <trkpt lat="45.7694" lon="3.02216">
        <ele>763</ele>
        <time>2021-11-19T21:32:09Z</time>
      </trkpt>
      <trkpt lat="45.76942" lon="3.02245">
        <ele>760</ele>
        <time>2021-11-19T21:32:14Z</time>
      </trkpt>
      <trkpt lat="45.76947" lon="3.02321">
        <ele>756</ele>
        <time>2021-11-19T21:32:28Z</time>
      </trkpt>
      <trkpt lat="45.76953" lon="3.02376">
        <ele>756</ele>
        <time>2021-11-19T21:32:39Z</time>
      </trkpt>
      <trkpt lat="45.76958" lon="3.02402">
        <ele>751</ele>
        <time>2021-11-19T21:32:44Z</time>
      </trkpt>
      <trkpt lat="45.76963" lon="3.02484">
        <ele>746</ele>
        <time>2021-11-19T21:32:59Z</time>
      </trkpt>
      <trkpt lat="45.76963" lon="3.02504">
        <ele>746</ele>
        <time>2021-11-19T21:33:03Z</time>
      </trkpt>
      <trkpt lat="45.76959" lon="3.02514">
        <ele>746</ele>
        <time>2021-11-19T21:33:05Z</time>
      </trkpt>
      <trkpt lat="45.76949" lon="3.02529">
        <ele>740</ele>
        <time>2021-11-19T21:33:09Z</time>
      </trkpt>
      <trkpt lat="45.76943" lon="3.02546">
        <ele>740</ele>
        <time>2021-11-19T21:33:13Z</time>
      </trkpt>
      <trkpt lat="45.76932" lon="3.02563">
        <ele>740</ele>
        <time>2021-11-19T21:33:17Z</time>
      </trkpt>
      <trkpt lat="45.76932" lon="3.0257">
        <ele>740</ele>
        <time>2021-11-19T21:33:18Z</time>
      </trkpt>
      <trkpt lat="45.76935" lon="3.02582">
        <ele>740</ele>
        <time>2021-11-19T21:33:21Z</time>
      </trkpt>
      <trkpt lat="45.76937" lon="3.02603">
        <ele>737</ele>
        <time>2021-11-19T21:33:24Z</time>
      </trkpt>
      <trkpt lat="45.76937" lon="3.02629">
        <ele>737</ele>
        <time>2021-11-19T21:33:29Z</time>
      </trkpt>
      <trkpt lat="45.76934" lon="3.02638">
        <ele>737</ele>
        <time>2021-11-19T21:33:31Z</time>
      </trkpt>
      <trkpt lat="45.76908" lon="3.02674">
        <ele>735</ele>
        <time>2021-11-19T21:33:41Z</time>
      </trkpt>
      <trkpt lat="45.76897" lon="3.02685">
        <ele>735</ele>
        <time>2021-11-19T21:33:44Z</time>
      </trkpt>
      <trkpt lat="45.76869" lon="3.02723">
        <ele>731</ele>
        <time>2021-11-19T21:33:55Z</time>
      </trkpt>
      <trkpt lat="45.76861" lon="3.02746">
        <ele>731</ele>
        <time>2021-11-19T21:34:00Z</time>
      </trkpt>
      <trkpt lat="45.7686" lon="3.02764">
        <ele>731</ele>
        <time>2021-11-19T21:34:03Z</time>
      </trkpt>
      <trkpt lat="45.76865" lon="3.0278">
        <ele>731</ele>
        <time>2021-11-19T21:34:06Z</time>
      </trkpt>
      <trkpt lat="45.76867" lon="3.02791">
        <ele>726</ele>
        <time>2021-11-19T21:34:08Z</time>
      </trkpt>
      <trkpt lat="45.76872" lon="3.02827">
        <ele>726</ele>
        <time>2021-11-19T21:34:15Z</time>
      </trkpt>
      <trkpt lat="45.76873" lon="3.02842">
        <ele>726</ele>
        <time>2021-11-19T21:34:18Z</time>
      </trkpt>
      <trkpt lat="45.76872" lon="3.02851">
        <ele>726</ele>
        <time>2021-11-19T21:34:20Z</time>
      </trkpt>
      <trkpt lat="45.76861" lon="3.02893">
        <ele>721</ele>
        <time>2021-11-19T21:34:28Z</time>
      </trkpt>
      <trkpt lat="45.76854" lon="3.02913">
        <ele>721</ele>
        <time>2021-11-19T21:34:32Z</time>
      </trkpt>
      <trkpt lat="45.7685" lon="3.02927">
        <ele>721</ele>
        <time>2021-11-19T21:34:35Z</time>
      </trkpt>
      <trkpt lat="45.7685" lon="3.02942">
        <ele>718</ele>
        <time>2021-11-19T21:34:38Z</time>
      </trkpt>
      <trkpt lat="45.76852" lon="3.02953">
        <ele>718</ele>
        <time>2021-11-19T21:34:40Z</time>
      </trkpt>
      <trkpt lat="45.76858" lon="3.02967">
        <ele>718</ele>
        <time>2021-11-19T21:34:43Z</time>
      </trkpt>
      <trkpt lat="45.76861" lon="3.02979">
        <ele>718</ele>
        <time>2021-11-19T21:34:45Z</time>
      </trkpt>
      <trkpt lat="45.76868" lon="3.02994">
        <ele>718</ele>
        <time>2021-11-19T21:34:49Z</time>
      </trkpt>
      <trkpt lat="45.76882" lon="3.03013">
        <ele>713</ele>
        <time>2021-11-19T21:34:54Z</time>
      </trkpt>
      <trkpt lat="45.76897" lon="3.03038">
        <ele>713</ele>
        <time>2021-11-19T21:35:00Z</time>
      </trkpt>
      <trkpt lat="45.76908" lon="3.0306">
        <ele>713</ele>
        <time>2021-11-19T21:35:05Z</time>
      </trkpt>
      <trkpt lat="45.76918" lon="3.03084">
        <ele>712</ele>
        <time>2021-11-19T21:35:10Z</time>
      </trkpt>
      <trkpt lat="45.76923" lon="3.03107">
        <ele>712</ele>
        <time>2021-11-19T21:35:15Z</time>
      </trkpt>
      <trkpt lat="45.76923" lon="3.03123">
        <ele>712</ele>
        <time>2021-11-19T21:35:18Z</time>
      </trkpt>
      <trkpt lat="45.76917" lon="3.03137">
        <ele>713</ele>
        <time>2021-11-19T21:35:21Z</time>
      </trkpt>
      <trkpt lat="45.76909" lon="3.03147">
        <ele>713</ele>
        <time>2021-11-19T21:35:24Z</time>
      </trkpt>
      <trkpt lat="45.7687" lon="3.03175">
        <ele>713</ele>
        <time>2021-11-19T21:35:35Z</time>
      </trkpt>
      <trkpt lat="45.76841" lon="3.03199">
        <ele>710</ele>
        <time>2021-11-19T21:35:44Z</time>
      </trkpt>
      <trkpt lat="45.76824" lon="3.03213">
        <ele>710</ele>
        <time>2021-11-19T21:35:49Z</time>
      </trkpt>
      <trkpt lat="45.76813" lon="3.03226">
        <ele>703</ele>
        <time>2021-11-19T21:35:53Z</time>
      </trkpt>
      <trkpt lat="45.76805" lon="3.03245">
        <ele>703</ele>
        <time>2021-11-19T21:35:57Z</time>
      </trkpt>
      <trkpt lat="45.76802" lon="3.03263">
        <ele>703</ele>
        <time>2021-11-19T21:36:01Z</time>
      </trkpt>
      <trkpt lat="45.76803" lon="3.03279">
        <ele>703</ele>
        <time>2021-11-19T21:36:04Z</time>
      </trkpt>
      <trkpt lat="45.76812" lon="3.03332">
        <ele>696</ele>
        <time>2021-11-19T21:36:14Z</time>
      </trkpt>
      <trkpt lat="45.76815" lon="3.03355">
        <ele>696</ele>
        <time>2021-11-19T21:36:18Z</time>
      </trkpt>
      <trkpt lat="45.76817" lon="3.03375">
        <ele>688</ele>
        <time>2021-11-19T21:36:22Z</time>
      </trkpt>
      <trkpt lat="45.76816" lon="3.03395">
        <ele>688</ele>
        <time>2021-11-19T21:36:26Z</time>
      </trkpt>
      <trkpt lat="45.76818" lon="3.03409">
        <ele>688</ele>
        <time>2021-11-19T21:36:29Z</time>
      </trkpt>
      <trkpt lat="45.76829" lon="3.03442">
        <ele>691</ele>
        <time>2021-11-19T21:36:35Z</time>
      </trkpt>
      <trkpt lat="45.7683" lon="3.03455">
        <ele>691</ele>
        <time>2021-11-19T21:36:38Z</time>
      </trkpt>
      <trkpt lat="45.7683" lon="3.03511">
        <ele>691</ele>
        <time>2021-11-19T21:36:48Z</time>
      </trkpt>
      <trkpt lat="45.76828" lon="3.03532">
        <ele>700</ele>
        <time>2021-11-19T21:36:52Z</time>
      </trkpt>
      <trkpt lat="45.76825" lon="3.03545">
        <ele>700</ele>
        <time>2021-11-19T21:36:55Z</time>
      </trkpt>
      <trkpt lat="45.76814" lon="3.03577">
        <ele>709</ele>
        <time>2021-11-19T21:37:01Z</time>
      </trkpt>
      <trkpt lat="45.7681" lon="3.03591">
        <ele>709</ele>
        <time>2021-11-19T21:37:04Z</time>
      </trkpt>
      <trkpt lat="45.76809" lon="3.03605">
        <ele>709</ele>
        <time>2021-11-19T21:37:07Z</time>
      </trkpt>
      <trkpt lat="45.76812" lon="3.03616">
        <ele>709</ele>
        <time>2021-11-19T21:37:09Z</time>
      </trkpt>
      <trkpt lat="45.76844" lon="3.03673">
        <ele>702</ele>
        <time>2021-11-19T21:37:23Z</time>
      </trkpt>
      <trkpt lat="45.76856" lon="3.03688">
        <ele>702</ele>
        <time>2021-11-19T21:37:27Z</time>
      </trkpt>
      <trkpt lat="45.76877" lon="3.03696">
        <ele>690</ele>
        <time>2021-11-19T21:37:33Z</time>
      </trkpt>
      <trkpt lat="45.76934" lon="3.03743">
        <ele>680</ele>
        <time>2021-11-19T21:37:50Z</time>
      </trkpt>
      <trkpt lat="45.76964" lon="3.03758">
        <ele>677</ele>
        <time>2021-11-19T21:37:59Z</time>
      </trkpt>
      <trkpt lat="45.7697" lon="3.03763">
        <ele>677</ele>
        <time>2021-11-19T21:38:01Z</time>
      </trkpt>
      <trkpt lat="45.76973" lon="3.03772">
        <ele>677</ele>
        <time>2021-11-19T21:38:02Z</time>
      </trkpt>
      <trkpt lat="45.76974" lon="3.03781">
        <ele>677</ele>
        <time>2021-11-19T21:38:04Z</time>
      </trkpt>
      <trkpt lat="45.76974" lon="3.0379">
        <ele>677</ele>
        <time>2021-11-19T21:38:06Z</time>
      </trkpt>
      <trkpt lat="45.76971" lon="3.03799">
        <ele>677</ele>
        <time>2021-11-19T21:38:08Z</time>
      </trkpt>
      <trkpt lat="45.76965" lon="3.0381">
        <ele>677</ele>
        <time>2021-11-19T21:38:10Z</time>
      </trkpt>
      <trkpt lat="45.76943" lon="3.03843">
        <ele>679</ele>
        <time>2021-11-19T21:38:19Z</time>
      </trkpt>
      <trkpt lat="45.76917" lon="3.03904">
        <ele>684</ele>
        <time>2021-11-19T21:38:32Z</time>
      </trkpt>
      <trkpt lat="45.76915" lon="3.03917">
        <ele>684</ele>
        <time>2021-11-19T21:38:35Z</time>
      </trkpt>
      <trkpt lat="45.76916" lon="3.03927">
        <ele>684</ele>
        <time>2021-11-19T21:38:37Z</time>
      </trkpt>
      <trkpt lat="45.7692" lon="3.03939">
        <ele>684</ele>
        <time>2021-11-19T21:38:39Z</time>
      </trkpt>
      <trkpt lat="45.76934" lon="3.03958">
        <ele>683</ele>
        <time>2021-11-19T21:38:44Z</time>
      </trkpt>
      <trkpt lat="45.76941" lon="3.03975">
        <ele>683</ele>
        <time>2021-11-19T21:38:48Z</time>
      </trkpt>
      <trkpt lat="45.76945" lon="3.0399">
        <ele>683</ele>
        <time>2021-11-19T21:38:51Z</time>
      </trkpt>
      <trkpt lat="45.76946" lon="3.04002">
        <ele>683</ele>
        <time>2021-11-19T21:38:53Z</time>
      </trkpt>
      <trkpt lat="45.76944" lon="3.04016">
        <ele>683</ele>
        <time>2021-11-19T21:38:56Z</time>
      </trkpt>
      <trkpt lat="45.76939" lon="3.04028">
        <ele>674</ele>
        <time>2021-11-19T21:38:58Z</time>
      </trkpt>
      <trkpt lat="45.76921" lon="3.04046">
        <ele>674</ele>
        <time>2021-11-19T21:39:04Z</time>
      </trkpt>
      <trkpt lat="45.76898" lon="3.04078">
        <ele>669</ele>
        <time>2021-11-19T21:39:13Z</time>
      </trkpt>
      <trkpt lat="45.76898" lon="3.04084">
        <ele>669</ele>
        <time>2021-11-19T21:39:14Z</time>
      </trkpt>
      <trkpt lat="45.76898" lon="3.04126">
        <ele>669</ele>
        <time>2021-11-19T21:39:22Z</time>
      </trkpt>
      <trkpt lat="45.76892" lon="3.04155">
        <ele>663</ele>
        <time>2021-11-19T21:39:27Z</time>
      </trkpt>
      <trkpt lat="45.76882" lon="3.04178">
        <ele>663</ele>
        <time>2021-11-19T21:39:32Z</time>
      </trkpt>
      <trkpt lat="45.76881" lon="3.04188">
        <ele>663</ele>
        <time>2021-11-19T21:39:34Z</time>
      </trkpt>
      <trkpt lat="45.7688" lon="3.04204">
        <ele>663</ele>
        <time>2021-11-19T21:39:37Z</time>
      </trkpt>
      <trkpt lat="45.76884" lon="3.04217">
        <ele>659</ele>
        <time>2021-11-19T21:39:40Z</time>
      </trkpt>
      <trkpt lat="45.7689" lon="3.04229">
        <ele>659</ele>
        <time>2021-11-19T21:39:43Z</time>
      </trkpt>
      <trkpt lat="45.76901" lon="3.04236">
        <ele>659</ele>
        <time>2021-11-19T21:39:46Z</time>
      </trkpt>
      <trkpt lat="45.76922" lon="3.04235">
        <ele>659</ele>
        <time>2021-11-19T21:39:51Z</time>
      </trkpt>
      <trkpt lat="45.76929" lon="3.04242">
        <ele>653</ele>
        <time>2021-11-19T21:39:54Z</time>
      </trkpt>
      <trkpt lat="45.76935" lon="3.04251">
        <ele>653</ele>
        <time>2021-11-19T21:39:56Z</time>
      </trkpt>
      <trkpt lat="45.76938" lon="3.04277">
        <ele>653</ele>
        <time>2021-11-19T21:40:01Z</time>
      </trkpt>
      <trkpt lat="45.76938" lon="3.04296">
        <ele>653</ele>
        <time>2021-11-19T21:40:05Z</time>
      </trkpt>
      <trkpt lat="45.76927" lon="3.04351">
        <ele>644</ele>
        <time>2021-11-19T21:40:15Z</time>
      </trkpt>
      <trkpt lat="45.76922" lon="3.04362">
        <ele>644</ele>
        <time>2021-11-19T21:40:18Z</time>
      </trkpt>
      <trkpt lat="45.76915" lon="3.04375">
        <ele>644</ele>
        <time>2021-11-19T21:40:21Z</time>
      </trkpt>
      <trkpt lat="45.76902" lon="3.04388">
        <ele>632</ele>
        <time>2021-11-19T21:40:25Z</time>
      </trkpt>
      <trkpt lat="45.76867" lon="3.04422">
        <ele>625</ele>
        <time>2021-11-19T21:40:36Z</time>
      </trkpt>
      <trkpt lat="45.7686" lon="3.04435">
        <ele>625</ele>
        <time>2021-11-19T21:40:39Z</time>
      </trkpt>
      <trkpt lat="45.76841" lon="3.04456">
        <ele>625</ele>
        <time>2021-11-19T21:40:46Z</time>
      </trkpt>
      <trkpt lat="45.76831" lon="3.04474">
        <ele>625</ele>
        <time>2021-11-19T21:40:50Z</time>
      </trkpt>
      <trkpt lat="45.76806" lon="3.04529">
        <ele>621</ele>
        <time>2021-11-19T21:41:02Z</time>
      </trkpt>
      <trkpt lat="45.76796" lon="3.04535">
        <ele>621</ele>
        <time>2021-11-19T21:41:05Z</time>
      </trkpt>
      <trkpt lat="45.7679" lon="3.04546">
        <ele>615</ele>
        <time>2021-11-19T21:41:08Z</time>
      </trkpt>
      <trkpt lat="45.76782" lon="3.0458">
        <ele>615</ele>
        <time>2021-11-19T21:41:14Z</time>
      </trkpt>
      <trkpt lat="45.7678" lon="3.04601">
        <ele>615</ele>
        <time>2021-11-19T21:41:18Z</time>
      </trkpt>
      <trkpt lat="45.76781" lon="3.04702">
        <ele>617</ele>
        <time>2021-11-19T21:41:37Z</time>
      </trkpt>
      <trkpt lat="45.76768" lon="3.04784">
        <ele>614</ele>
        <time>2021-11-19T21:41:53Z</time>
      </trkpt>
      <trkpt lat="45.76769" lon="3.04801">
        <ele>614</ele>
        <time>2021-11-19T21:41:56Z</time>
      </trkpt>
      <trkpt lat="45.76773" lon="3.04817">
        <ele>614</ele>
        <time>2021-11-19T21:41:59Z</time>
      </trkpt>
      <trkpt lat="45.76781" lon="3.04831">
        <ele>609</ele>
        <time>2021-11-19T21:42:03Z</time>
      </trkpt>
      <trkpt lat="45.76808" lon="3.04859">
        <ele>609</ele>
        <time>2021-11-19T21:42:11Z</time>
      </trkpt>
      <trkpt lat="45.76829" lon="3.04891">
        <ele>604</ele>
        <time>2021-11-19T21:42:20Z</time>
      </trkpt>
      <trkpt lat="45.76837" lon="3.04913">
        <ele>604</ele>
        <time>2021-11-19T21:42:24Z</time>
      </trkpt>
      <trkpt lat="45.76846" lon="3.04953">
        <ele>595</ele>
        <time>2021-11-19T21:42:32Z</time>
      </trkpt>
      <trkpt lat="45.76847" lon="3.04988">
        <ele>595</ele>
        <time>2021-11-19T21:42:39Z</time>
      </trkpt>
      <trkpt lat="45.76851" lon="3.05014">
        <ele>595</ele>
        <time>2021-11-19T21:42:44Z</time>
      </trkpt>
      <trkpt lat="45.76857" lon="3.05034">
        <ele>582</ele>
        <time>2021-11-19T21:42:48Z</time>
      </trkpt>
      <trkpt lat="45.76848" lon="3.05028">
        <ele>582</ele>
        <time>2021-11-19T21:42:50Z</time>
      </trkpt>
      <trkpt lat="45.76844" lon="3.05026">
        <ele>582</ele>
        <time>2021-11-19T21:42:51Z</time>
      </trkpt>
      <trkpt lat="45.76833" lon="3.0502">
        <ele>582</ele>
        <time>2021-11-19T21:42:55Z</time>
      </trkpt>
      <trkpt lat="45.76824" lon="3.0502">
        <ele>582</ele>
        <time>2021-11-19T21:42:57Z</time>
      </trkpt>
      <trkpt lat="45.76813" lon="3.05023">
        <ele>582</ele>
        <time>2021-11-19T21:43:00Z</time>
      </trkpt>
      <trkpt lat="45.76802" lon="3.05034">
        <ele>584</ele>
        <time>2021-11-19T21:43:04Z</time>
      </trkpt>
      <trkpt lat="45.76784" lon="3.05038">
        <ele>584</ele>
        <time>2021-11-19T21:43:08Z</time>
      </trkpt>
      <trkpt lat="45.76748" lon="3.05038">
        <ele>585</ele>
        <time>2021-11-19T21:43:18Z</time>
      </trkpt>
      <trkpt lat="45.76713" lon="3.0504">
        <ele>585</ele>
        <time>2021-11-19T21:43:27Z</time>
      </trkpt>
      <trkpt lat="45.76695" lon="3.05051">
        <ele>577</ele>
        <time>2021-11-19T21:43:33Z</time>
      </trkpt>
      <trkpt lat="45.76684" lon="3.05066">
        <ele>577</ele>
        <time>2021-11-19T21:43:37Z</time>
      </trkpt>
      <trkpt lat="45.76666" lon="3.0511">
        <ele>562</ele>
        <time>2021-11-19T21:43:46Z</time>
      </trkpt>
      <trkpt lat="45.76665" lon="3.05113">
        <ele>562</ele>
        <time>2021-11-19T21:43:47Z</time>
      </trkpt>
      <trkpt lat="45.7666" lon="3.05145">
        <ele>562</ele>
        <time>2021-11-19T21:43:53Z</time>
      </trkpt>
      <trkpt lat="45.76658" lon="3.05159">
        <ele>562</ele>
        <time>2021-11-19T21:43:56Z</time>
      </trkpt>
      <trkpt lat="45.76652" lon="3.05168">
        <ele>562</ele>
        <time>2021-11-19T21:43:58Z</time>
      </trkpt>
      <trkpt lat="45.76646" lon="3.05174">
        <ele>562</ele>
        <time>2021-11-19T21:44:00Z</time>
      </trkpt>
      <trkpt lat="45.76643" lon="3.05166">
        <ele>559</ele>
        <time>2021-11-19T21:44:02Z</time>
      </trkpt>
      <trkpt lat="45.76639" lon="3.05166">
        <ele>559</ele>
        <time>2021-11-19T21:44:03Z</time>
      </trkpt>
      <trkpt lat="45.76638" lon="3.05167">
        <ele>559</ele>
        <time>2021-11-19T21:44:03Z</time>
      </trkpt>
      <trkpt lat="45.76632" lon="3.05168">
        <ele>559</ele>
        <time>2021-11-19T21:44:05Z</time>
      </trkpt>
      <trkpt lat="45.76631" lon="3.05138">
        <ele>559</ele>
        <time>2021-11-19T21:44:10Z</time>
      </trkpt>
      <trkpt lat="45.76627" lon="3.05111">
        <ele>558</ele>
        <time>2021-11-19T21:44:15Z</time>
      </trkpt>
      <trkpt lat="45.76622" lon="3.05071">
        <ele>558</ele>
        <time>2021-11-19T21:44:23Z</time>
      </trkpt>
      <trkpt lat="45.76621" lon="3.05057">
        <ele>558</ele>
        <time>2021-11-19T21:44:26Z</time>
      </trkpt>
      <trkpt lat="45.76619" lon="3.05048">
        <ele>551</ele>
        <time>2021-11-19T21:44:27Z</time>
      </trkpt>
      <trkpt lat="45.76617" lon="3.05035">
        <ele>551</ele>
        <time>2021-11-19T21:44:30Z</time>
      </trkpt>
      <trkpt lat="45.76608" lon="3.05023">
        <ele>551</ele>
        <time>2021-11-19T21:44:33Z</time>
      </trkpt>
      <trkpt lat="45.76569" lon="3.04973">
        <ele>539</ele>
        <time>2021-11-19T21:44:47Z</time>
      </trkpt>
      <trkpt lat="45.76565" lon="3.04961">
        <ele>539</ele>
        <time>2021-11-19T21:44:50Z</time>
      </trkpt>
      <trkpt lat="45.76548" lon="3.04909">
        <ele>528</ele>
        <time>2021-11-19T21:45:00Z</time>
      </trkpt>
      <trkpt lat="45.76546" lon="3.04893">
        <ele>528</ele>
        <time>2021-11-19T21:45:03Z</time>
      </trkpt>
      <trkpt lat="45.7654" lon="3.0487">
        <ele>528</ele>
        <time>2021-11-19T21:45:08Z</time>
      </trkpt>
      <trkpt lat="45.76531" lon="3.04858">
        <ele>522</ele>
        <time>2021-11-19T21:45:11Z</time>
      </trkpt>
      <trkpt lat="45.76527" lon="3.0485">
        <ele>522</ele>
        <time>2021-11-19T21:45:13Z</time>
      </trkpt>
      <trkpt lat="45.76521" lon="3.04851">
        <ele>522</ele>
        <time>2021-11-19T21:45:15Z</time>
      </trkpt>
      <trkpt lat="45.76512" lon="3.04855">
        <ele>522</ele>
        <time>2021-11-19T21:45:17Z</time>
      </trkpt>
      <trkpt lat="45.76507" lon="3.04856">
        <ele>511</ele>
        <time>2021-11-19T21:45:18Z</time>
      </trkpt>
      <trkpt lat="45.76492" lon="3.0486">
        <ele>511</ele>
        <time>2021-11-19T21:45:23Z</time>
      </trkpt>
      <trkpt lat="45.76478" lon="3.04863">
        <ele>511</ele>
        <time>2021-11-19T21:45:26Z</time>
      </trkpt>
      <trkpt lat="45.76475" lon="3.04878">
        <ele>511</ele>
        <time>2021-11-19T21:45:29Z</time>
      </trkpt>
      <trkpt lat="45.76474" lon="3.04883">
        <ele>511</ele>
        <time>2021-11-19T21:45:30Z</time>
      </trkpt>
      <trkpt lat="45.76471" lon="3.04893">
        <ele>511</ele>
        <time>2021-11-19T21:45:32Z</time>
      </trkpt>
      <trkpt lat="45.76469" lon="3.04904">
        <ele>506</ele>
        <time>2021-11-19T21:45:34Z</time>
      </trkpt>
      <trkpt lat="45.76467" lon="3.04915">
        <ele>506</ele>
        <time>2021-11-19T21:45:36Z</time>
      </trkpt>
      <trkpt lat="45.76463" lon="3.04932">
        <ele>506</ele>
        <time>2021-11-19T21:45:40Z</time>
      </trkpt>
      <trkpt lat="45.76462" lon="3.04937">
        <ele>506</ele>
        <time>2021-11-19T21:45:41Z</time>
      </trkpt>
      <trkpt lat="45.76461" lon="3.04943">
        <ele>506</ele>
        <time>2021-11-19T21:45:42Z</time>
      </trkpt>
      <trkpt lat="45.7646" lon="3.04951">
        <ele>506</ele>
        <time>2021-11-19T21:45:43Z</time>
      </trkpt>
      <trkpt lat="45.76457" lon="3.04966">
        <ele>506</ele>
        <time>2021-11-19T21:45:46Z</time>
      </trkpt>
      <trkpt lat="45.76456" lon="3.04979">
        <ele>503</ele>
        <time>2021-11-19T21:45:49Z</time>
      </trkpt>
      <trkpt lat="45.76456" lon="3.04989">
        <ele>503</ele>
        <time>2021-11-19T21:45:51Z</time>
      </trkpt>
      <trkpt lat="45.76458" lon="3.05006">
        <ele>503</ele>
        <time>2021-11-19T21:45:54Z</time>
      </trkpt>
      <trkpt lat="45.76459" lon="3.05008">
        <ele>503</ele>
        <time>2021-11-19T21:45:54Z</time>
      </trkpt>
      <trkpt lat="45.76461" lon="3.05018">
        <ele>503</ele>
        <time>2021-11-19T21:45:56Z</time>
      </trkpt>
      <trkpt lat="45.76468" lon="3.05027">
        <ele>503</ele>
        <time>2021-11-19T21:45:59Z</time>
      </trkpt>
      <trkpt lat="45.76476" lon="3.05036">
        <ele>503</ele>
        <time>2021-11-19T21:46:01Z</time>
      </trkpt>
      <trkpt lat="45.7648" lon="3.05041">
        <ele>504</ele>
        <time>2021-11-19T21:46:03Z</time>
      </trkpt>
      <trkpt lat="45.76488" lon="3.05047">
        <ele>504</ele>
        <time>2021-11-19T21:46:05Z</time>
      </trkpt>
      <trkpt lat="45.7649" lon="3.05045">
        <ele>504</ele>
        <time>2021-11-19T21:46:06Z</time>
      </trkpt>
      <trkpt lat="45.76492" lon="3.0504">
        <ele>504</ele>
        <time>2021-11-19T21:46:07Z</time>
      </trkpt>
      <trkpt lat="45.76507" lon="3.05038">
        <ele>504</ele>
        <time>2021-11-19T21:46:11Z</time>
      </trkpt>
      <trkpt lat="45.76509" lon="3.05042">
        <ele>504</ele>
        <time>2021-11-19T21:46:12Z</time>
      </trkpt>
      <trkpt lat="45.76513" lon="3.05047">
        <ele>504</ele>
        <time>2021-11-19T21:46:13Z</time>
      </trkpt>
      <trkpt lat="45.7651" lon="3.05051">
        <ele>504</ele>
        <time>2021-11-19T21:46:14Z</time>
      </trkpt>
      <trkpt lat="45.76486" lon="3.05089">
        <ele>510</ele>
        <time>2021-11-19T21:46:24Z</time>
      </trkpt>
      <trkpt lat="45.76483" lon="3.05103">
        <ele>510</ele>
        <time>2021-11-19T21:46:27Z</time>
      </trkpt>
      <trkpt lat="45.76483" lon="3.05115">
        <ele>510</ele>
        <time>2021-11-19T21:46:29Z</time>
      </trkpt>
      <trkpt lat="45.76487" lon="3.05114">
        <ele>510</ele>
        <time>2021-11-19T21:46:30Z</time>
      </trkpt>
      <trkpt lat="45.76494" lon="3.05111">
        <ele>513</ele>
        <time>2021-11-19T21:46:32Z</time>
      </trkpt>
      <trkpt lat="45.76497" lon="3.0511">
        <ele>513</ele>
        <time>2021-11-19T21:46:33Z</time>
      </trkpt>
      <trkpt lat="45.76502" lon="3.05135">
        <ele>513</ele>
        <time>2021-11-19T21:46:38Z</time>
      </trkpt>
      <trkpt lat="45.76509" lon="3.05159">
        <ele>513</ele>
        <time>2021-11-19T21:46:43Z</time>
      </trkpt>
      <trkpt lat="45.76515" lon="3.05177">
        <ele>513</ele>
        <time>2021-11-19T21:46:46Z</time>
      </trkpt>
      <trkpt lat="45.76516" lon="3.05181">
        <ele>511</ele>
        <time>2021-11-19T21:46:47Z</time>
      </trkpt>
      <trkpt lat="45.76515" lon="3.05183">
        <ele>511</ele>
        <time>2021-11-19T21:46:48Z</time>
      </trkpt>
      <trkpt lat="45.76515" lon="3.05186">
        <ele>511</ele>
        <time>2021-11-19T21:46:48Z</time>
      </trkpt>
      <trkpt lat="45.76507" lon="3.05199">
        <ele>511</ele>
        <time>2021-11-19T21:46:51Z</time>
      </trkpt>
      <trkpt lat="45.76507" lon="3.05201">
        <ele>511</ele>
        <time>2021-11-19T21:46:52Z</time>
      </trkpt>
      <trkpt lat="45.76506" lon="3.05203">
        <ele>511</ele>
        <time>2021-11-19T21:46:52Z</time>
      </trkpt>
      <trkpt lat="45.76506" lon="3.05206">
        <ele>511</ele>
        <time>2021-11-19T21:46:53Z</time>
      </trkpt>
      <trkpt lat="45.76508" lon="3.05219">
        <ele>511</ele>
        <time>2021-11-19T21:46:55Z</time>
      </trkpt>
      <trkpt lat="45.76511" lon="3.05231">
        <ele>511</ele>
        <time>2021-11-19T21:46:58Z</time>
      </trkpt>
      <trkpt lat="45.76512" lon="3.05237">
        <ele>511</ele>
        <time>2021-11-19T21:46:59Z</time>
      </trkpt>
      <trkpt lat="45.76512" lon="3.05249">
        <ele>511</ele>
        <time>2021-11-19T21:47:01Z</time>
      </trkpt>
      <trkpt lat="45.76512" lon="3.05258">
        <ele>506</ele>
        <time>2021-11-19T21:47:03Z</time>
      </trkpt>
      <trkpt lat="45.7651" lon="3.0527">
        <ele>506</ele>
        <time>2021-11-19T21:47:05Z</time>
      </trkpt>
      <trkpt lat="45.76511" lon="3.05292">
        <ele>506</ele>
        <time>2021-11-19T21:47:09Z</time>
      </trkpt>
      <trkpt lat="45.76511" lon="3.05301">
        <ele>506</ele>
        <time>2021-11-19T21:47:11Z</time>
      </trkpt>
      <trkpt lat="45.76516" lon="3.05307">
        <ele>506</ele>
        <time>2021-11-19T21:47:12Z</time>
      </trkpt>
      <trkpt lat="45.76524" lon="3.05327">
        <ele>500</ele>
        <time>2021-11-19T21:47:17Z</time>
      </trkpt>
      <trkpt lat="45.76532" lon="3.05351">
        <ele>500</ele>
        <time>2021-11-19T21:47:22Z</time>
      </trkpt>
      <trkpt lat="45.76533" lon="3.05355">
        <ele>500</ele>
        <time>2021-11-19T21:47:22Z</time>
      </trkpt>
      <trkpt lat="45.76539" lon="3.05357">
        <ele>500</ele>
        <time>2021-11-19T21:47:24Z</time>
      </trkpt>
      <trkpt lat="45.76542" lon="3.05358">
        <ele>500</ele>
        <time>2021-11-19T21:47:25Z</time>
      </trkpt>
      <trkpt lat="45.76545" lon="3.0536">
        <ele>500</ele>
        <time>2021-11-19T21:47:26Z</time>
      </trkpt>
      <trkpt lat="45.76547" lon="3.05363">
        <ele>500</ele>
        <time>2021-11-19T21:47:27Z</time>
      </trkpt>
      <trkpt lat="45.76553" lon="3.05379">
        <ele>500</ele>
        <time>2021-11-19T21:47:30Z</time>
      </trkpt>
      <trkpt lat="45.76555" lon="3.05383">
        <ele>495</ele>
        <time>2021-11-19T21:47:31Z</time>
      </trkpt>
      <trkpt lat="45.76552" lon="3.05387">
        <ele>495</ele>
        <time>2021-11-19T21:47:32Z</time>
      </trkpt>
      <trkpt lat="45.76549" lon="3.0539">
        <ele>495</ele>
        <time>2021-11-19T21:47:33Z</time>
      </trkpt>
      <trkpt lat="45.76548" lon="3.05396">
        <ele>495</ele>
        <time>2021-11-19T21:47:34Z</time>
      </trkpt>
      <trkpt lat="45.76551" lon="3.054">
        <ele>495</ele>
        <time>2021-11-19T21:47:35Z</time>
      </trkpt>
      <trkpt lat="45.76544" lon="3.05405">
        <ele>495</ele>
        <time>2021-11-19T21:47:37Z</time>
      </trkpt>
      <trkpt lat="45.76538" lon="3.0541">
        <ele>495</ele>
        <time>2021-11-19T21:47:39Z</time>
      </trkpt>
      <trkpt lat="45.76536" lon="3.05413">
        <ele>495</ele>
        <time>2021-11-19T21:47:40Z</time>
      </trkpt>
      <trkpt lat="45.76539" lon="3.05424">
        <ele>495</ele>
        <time>2021-11-19T21:47:42Z</time>
      </trkpt>
      <trkpt lat="45.7654" lon="3.05431">
        <ele>495</ele>
        <time>2021-11-19T21:47:43Z</time>
      </trkpt>
      <trkpt lat="45.7654" lon="3.05443">
        <ele>490</ele>
        <time>2021-11-19T21:47:46Z</time>
      </trkpt>
      <trkpt lat="45.76539" lon="3.05447">
        <ele>490</ele>
        <time>2021-11-19T21:47:47Z</time>
      </trkpt>
      <trkpt lat="45.7654" lon="3.05453">
        <ele>490</ele>
        <time>2021-11-19T21:47:48Z</time>
      </trkpt>
      <trkpt lat="45.76541" lon="3.05467">
        <ele>490</ele>
        <time>2021-11-19T21:47:50Z</time>
      </trkpt>
      <trkpt lat="45.76543" lon="3.05477">
        <ele>490</ele>
        <time>2021-11-19T21:47:52Z</time>
      </trkpt>
      <trkpt lat="45.76544" lon="3.0548">
        <ele>490</ele>
        <time>2021-11-19T21:47:53Z</time>
      </trkpt>
      <trkpt lat="45.76545" lon="3.05481">
        <ele>490</ele>
        <time>2021-11-19T21:47:53Z</time>
      </trkpt>
      <trkpt lat="45.76551" lon="3.05487">
        <ele>490</ele>
        <time>2021-11-19T21:47:55Z</time>
      </trkpt>
      <trkpt lat="45.76561" lon="3.05496">
        <ele>490</ele>
        <time>2021-11-19T21:47:58Z</time>
      </trkpt>
      <trkpt lat="45.76574" lon="3.0551">
        <ele>488</ele>
        <time>2021-11-19T21:48:03Z</time>
      </trkpt>
      <trkpt lat="45.76585" lon="3.05521">
        <ele>488</ele>
        <time>2021-11-19T21:48:06Z</time>
      </trkpt>
      <trkpt lat="45.76584" lon="3.05524">
        <ele>488</ele>
        <time>2021-11-19T21:48:07Z</time>
      </trkpt>
      <trkpt lat="45.76581" lon="3.05532">
        <ele>488</ele>
        <time>2021-11-19T21:48:09Z</time>
      </trkpt>
      <trkpt lat="45.76584" lon="3.05539">
        <ele>488</ele>
        <time>2021-11-19T21:48:10Z</time>
      </trkpt>
      <trkpt lat="45.76593" lon="3.05556">
        <ele>488</ele>
        <time>2021-11-19T21:48:14Z</time>
      </trkpt>
      <trkpt lat="45.76615" lon="3.05591">
        <ele>486</ele>
        <time>2021-11-19T21:48:23Z</time>
      </trkpt>
      <trkpt lat="45.7662" lon="3.05602">
        <ele>486</ele>
        <time>2021-11-19T21:48:25Z</time>
      </trkpt>
      <trkpt lat="45.7663" lon="3.05618">
        <ele>486</ele>
        <time>2021-11-19T21:48:29Z</time>
      </trkpt>
      <trkpt lat="45.76635" lon="3.05627">
        <ele>484</ele>
        <time>2021-11-19T21:48:31Z</time>
      </trkpt>
      <trkpt lat="45.76633" lon="3.05627">
        <ele>484</ele>
        <time>2021-11-19T21:48:32Z</time>
      </trkpt>
      <trkpt lat="45.76624" lon="3.05615">
        <ele>484</ele>
        <time>2021-11-19T21:48:35Z</time>
      </trkpt>
      <trkpt lat="45.76611" lon="3.05595">
        <ele>484</ele>
        <time>2021-11-19T21:48:40Z</time>
      </trkpt>
      <trkpt lat="45.76608" lon="3.05592">
        <ele>484</ele>
        <time>2021-11-19T21:48:41Z</time>
      </trkpt>
      <trkpt lat="45.76605" lon="3.05592">
        <ele>484</ele>
        <time>2021-11-19T21:48:42Z</time>
      </trkpt>
      <trkpt lat="45.76581" lon="3.0562">
        <ele>485</ele>
        <time>2021-11-19T21:48:50Z</time>
      </trkpt>
      <trkpt lat="45.76584" lon="3.05626">
        <ele>485</ele>
        <time>2021-11-19T21:48:52Z</time>
      </trkpt>
      <trkpt lat="45.76579" lon="3.05632">
        <ele>485</ele>
        <time>2021-11-19T21:48:53Z</time>
      </trkpt>
      <trkpt lat="45.76575" lon="3.05639">
        <ele>485</ele>
        <time>2021-11-19T21:48:55Z</time>
      </trkpt>
      <trkpt lat="45.7657" lon="3.05652">
        <ele>485</ele>
        <time>2021-11-19T21:48:58Z</time>
      </trkpt>
      <trkpt lat="45.76555" lon="3.05684">
        <ele>487</ele>
        <time>2021-11-19T21:49:05Z</time>
      </trkpt>
      <trkpt lat="45.76554" lon="3.05686">
        <ele>487</ele>
        <time>2021-11-19T21:49:06Z</time>
      </trkpt>
      <trkpt lat="45.76524" lon="3.05744">
        <ele>488</ele>
        <time>2021-11-19T21:49:19Z</time>
      </trkpt>
      <trkpt lat="45.76501" lon="3.05793">
        <ele>490</ele>
        <time>2021-11-19T21:49:30Z</time>
      </trkpt>
      <trkpt lat="45.76497" lon="3.05807">
        <ele>490</ele>
        <time>2021-11-19T21:49:33Z</time>
      </trkpt>
      <trkpt lat="45.76493" lon="3.05824">
        <ele>490</ele>
        <time>2021-11-19T21:49:36Z</time>
      </trkpt>
      <trkpt lat="45.76511" lon="3.05921">
        <ele>495</ele>
        <time>2021-11-19T21:49:55Z</time>
      </trkpt>
      <trkpt lat="45.76525" lon="3.05992">
        <ele>504</ele>
        <time>2021-11-19T21:50:09Z</time>
      </trkpt>
      <trkpt lat="45.765" lon="3.06003">
        <ele>505</ele>
        <time>2021-11-19T21:50:16Z</time>
      </trkpt>
      <trkpt lat="45.76427" lon="3.06032">
        <ele>505</ele>
        <time>2021-11-19T21:50:36Z</time>
      </trkpt>
      <trkpt lat="45.76445" lon="3.06095">
        <ele>505</ele>
        <time>2021-11-19T21:50:49Z</time>
      </trkpt>
      <trkpt lat="45.76458" lon="3.06146">
        <ele>507</ele>
        <time>2021-11-19T21:50:59Z</time>
      </trkpt>
      <trkpt lat="45.76478" lon="3.06176">
        <ele>507</ele>
        <time>2021-11-19T21:51:06Z</time>
      </trkpt>
      <trkpt lat="45.76487" lon="3.06194">
        <ele>507</ele>
        <time>2021-11-19T21:51:11Z</time>
      </trkpt>
      <trkpt lat="45.76489" lon="3.06205">
        <ele>507</ele>
        <time>2021-11-19T21:51:13Z</time>
      </trkpt>
      <trkpt lat="45.76478" lon="3.0621">
        <ele>507</ele>
        <time>2021-11-19T21:51:16Z</time>
      </trkpt>
      <trkpt lat="45.76452" lon="3.06214">
        <ele>501</ele>
        <time>2021-11-19T21:51:23Z</time>
      </trkpt>
      <trkpt lat="45.76443" lon="3.06224">
        <ele>501</ele>
        <time>2021-11-19T21:51:26Z</time>
      </trkpt>
      <trkpt lat="45.76438" lon="3.06237">
        <ele>501</ele>
        <time>2021-11-19T21:51:29Z</time>
      </trkpt>
      <trkpt lat="45.76437" lon="3.0625">
        <ele>501</ele>
        <time>2021-11-19T21:51:31Z</time>
      </trkpt>
      <trkpt lat="45.76443" lon="3.06266">
        <ele>487</ele>
        <time>2021-11-19T21:51:34Z</time>
      </trkpt>
      <trkpt lat="45.76447" lon="3.06281">
        <ele>487</ele>
        <time>2021-11-19T21:51:37Z</time>
      </trkpt>
      <trkpt lat="45.7645" lon="3.06296">
        <ele>487</ele>
        <time>2021-11-19T21:51:40Z</time>
      </trkpt>
      <trkpt lat="45.76457" lon="3.06339">
        <ele>479</ele>
        <time>2021-11-19T21:51:49Z</time>
      </trkpt>
      <trkpt lat="45.76461" lon="3.06342">
        <ele>479</ele>
        <time>2021-11-19T21:51:50Z</time>
      </trkpt>
      <trkpt lat="45.76473" lon="3.06349">
        <ele>479</ele>
        <time>2021-11-19T21:51:53Z</time>
      </trkpt>
      <trkpt lat="45.76477" lon="3.06358">
        <ele>479</ele>
        <time>2021-11-19T21:51:55Z</time>
      </trkpt>
      <trkpt lat="45.76487" lon="3.06402">
        <ele>472</ele>
        <time>2021-11-19T21:52:04Z</time>
      </trkpt>
      <trkpt lat="45.76488" lon="3.06409">
        <ele>472</ele>
        <time>2021-11-19T21:52:05Z</time>
      </trkpt>
      <trkpt lat="45.76483" lon="3.06425">
        <ele>472</ele>
        <time>2021-11-19T21:52:08Z</time>
      </trkpt>
      <trkpt lat="45.76478" lon="3.06422">
        <ele>472</ele>
        <time>2021-11-19T21:52:10Z</time>
      </trkpt>
      <trkpt lat="45.76457" lon="3.06413">
        <ele>468</ele>
        <time>2021-11-19T21:52:16Z</time>
      </trkpt>
      <trkpt lat="45.76435" lon="3.06406">
        <ele>468</ele>
        <time>2021-11-19T21:52:22Z</time>
      </trkpt>
      <trkpt lat="45.76424" lon="3.06409">
        <ele>468</ele>
        <time>2021-11-19T21:52:25Z</time>
      </trkpt>
      <trkpt lat="45.76398" lon="3.06407">
        <ele>479</ele>
        <time>2021-11-19T21:52:32Z</time>
      </trkpt>
      <trkpt lat="45.76383" lon="3.06398">
        <ele>479</ele>
        <time>2021-11-19T21:52:36Z</time>
      </trkpt>
      <trkpt lat="45.76375" lon="3.06413">
        <ele>479</ele>
        <time>2021-11-19T21:52:40Z</time>
      </trkpt>
      <trkpt lat="45.76355" lon="3.0644">
        <ele>492</ele>
        <time>2021-11-19T21:52:47Z</time>
      </trkpt>
      <trkpt lat="45.76362" lon="3.06457">
        <ele>492</ele>
        <time>2021-11-19T21:52:51Z</time>
      </trkpt>
      <trkpt lat="45.76341" lon="3.06479">
        <ele>501</ele>
        <time>2021-11-19T21:52:58Z</time>
      </trkpt>
      <trkpt lat="45.76302" lon="3.06533">
        <ele>501</ele>
        <time>2021-11-19T21:53:12Z</time>
      </trkpt>
      <trkpt lat="45.76276" lon="3.06512">
        <ele>502</ele>
        <time>2021-11-19T21:53:20Z</time>
      </trkpt>
      <trkpt lat="45.76262" lon="3.06508">
        <ele>502</ele>
        <time>2021-11-19T21:53:24Z</time>
      </trkpt>
      <trkpt lat="45.76243" lon="3.06499">
        <ele>506</ele>
        <time>2021-11-19T21:53:29Z</time>
      </trkpt>
      <trkpt lat="45.76239" lon="3.06503">
        <ele>506</ele>
        <time>2021-11-19T21:53:30Z</time>
      </trkpt>
      <trkpt lat="45.76183" lon="3.06476">
        <ele>511</ele>
        <time>2021-11-19T21:53:46Z</time>
      </trkpt>
      <trkpt lat="45.76182" lon="3.06482">
        <ele>511</ele>
        <time>2021-11-19T21:53:47Z</time>
      </trkpt>
      <trkpt lat="45.76169" lon="3.06524">
        <ele>518</ele>
        <time>2021-11-19T21:53:56Z</time>
      </trkpt>
      <trkpt lat="45.76147" lon="3.066">
        <ele>519</ele>
        <time>2021-11-19T21:54:11Z</time>
      </trkpt>
      <trkpt lat="45.76139" lon="3.06637">
        <ele>519</ele>
        <time>2021-11-19T21:54:18Z</time>
      </trkpt>
      <trkpt lat="45.76134" lon="3.06676">
        <ele>522</ele>
        <time>2021-11-19T21:54:26Z</time>
      </trkpt>
      <trkpt lat="45.76137" lon="3.06707">
        <ele>522</ele>
        <time>2021-11-19T21:54:32Z</time>
      </trkpt>
      <trkpt lat="45.76146" lon="3.06734">
        <ele>530</ele>
        <time>2021-11-19T21:54:37Z</time>
      </trkpt>
      <trkpt lat="45.76162" lon="3.06773">
        <ele>530</ele>
        <time>2021-11-19T21:54:46Z</time>
      </trkpt>
      <trkpt lat="45.76192" lon="3.06826">
        <ele>529</ele>
        <time>2021-11-19T21:54:58Z</time>
      </trkpt>
      <trkpt lat="45.76193" lon="3.06849">
        <ele>529</ele>
        <time>2021-11-19T21:55:03Z</time>
      </trkpt>
      <trkpt lat="45.7619" lon="3.06878">
        <ele>523</ele>
        <time>2021-11-19T21:55:08Z</time>
      </trkpt>
      <trkpt lat="45.76182" lon="3.06908">
        <ele>523</ele>
        <time>2021-11-19T21:55:14Z</time>
      </trkpt>
      <trkpt lat="45.76171" lon="3.06938">
        <ele>518</ele>
        <time>2021-11-19T21:55:21Z</time>
      </trkpt>
      <trkpt lat="45.76157" lon="3.06969">
        <ele>518</ele>
        <time>2021-11-19T21:55:27Z</time>
      </trkpt>
      <trkpt lat="45.76146" lon="3.06987">
        <ele>518</ele>
        <time>2021-11-19T21:55:32Z</time>
      </trkpt>
      <trkpt lat="45.76133" lon="3.07011">
        <ele>516</ele>
        <time>2021-11-19T21:55:38Z</time>
      </trkpt>
      <trkpt lat="45.76122" lon="3.07021">
        <ele>516</ele>
        <time>2021-11-19T21:55:41Z</time>
      </trkpt>
      <trkpt lat="45.76109" lon="3.07035">
        <ele>516</ele>
        <time>2021-11-19T21:55:45Z</time>
      </trkpt>
      <trkpt lat="45.76098" lon="3.07049">
        <ele>512</ele>
        <time>2021-11-19T21:55:49Z</time>
      </trkpt>
      <trkpt lat="45.76089" lon="3.07068">
        <ele>512</ele>
        <time>2021-11-19T21:55:54Z</time>
      </trkpt>
      <trkpt lat="45.76082" lon="3.07088">
        <ele>512</ele>
        <time>2021-11-19T21:55:58Z</time>
      </trkpt>
      <trkpt lat="45.76078" lon="3.07101">
        <ele>512</ele>
        <time>2021-11-19T21:56:00Z</time>
      </trkpt>
      <trkpt lat="45.76069" lon="3.07118">
        <ele>506</ele>
        <time>2021-11-19T21:56:04Z</time>
      </trkpt>
      <trkpt lat="45.76057" lon="3.07127">
        <ele>506</ele>
        <time>2021-11-19T21:56:08Z</time>
      </trkpt>
      <trkpt lat="45.7604" lon="3.07133">
        <ele>506</ele>
        <time>2021-11-19T21:56:13Z</time>
      </trkpt>
      <trkpt lat="45.76022" lon="3.07133">
        <ele>499</ele>
        <time>2021-11-19T21:56:17Z</time>
      </trkpt>
      <trkpt lat="45.75931" lon="3.07124">
        <ele>496</ele>
        <time>2021-11-19T21:56:42Z</time>
      </trkpt>
      <trkpt lat="45.75907" lon="3.07121">
        <ele>495</ele>
        <time>2021-11-19T21:56:48Z</time>
      </trkpt>
      <trkpt lat="45.75876" lon="3.07109">
        <ele>495</ele>
        <time>2021-11-19T21:56:57Z</time>
      </trkpt>
      <trkpt lat="45.75858" lon="3.07103">
        <ele>492</ele>
        <time>2021-11-19T21:57:02Z</time>
      </trkpt>
      <trkpt lat="45.75844" lon="3.071">
        <ele>492</ele>
        <time>2021-11-19T21:57:06Z</time>
      </trkpt>
      <trkpt lat="45.75816" lon="3.07094">
        <ele>492</ele>
        <time>2021-11-19T21:57:13Z</time>
      </trkpt>
      <trkpt lat="45.75786" lon="3.07091">
        <ele>488</ele>
        <time>2021-11-19T21:57:21Z</time>
      </trkpt>
      <trkpt lat="45.75765" lon="3.07087">
        <ele>488</ele>
        <time>2021-11-19T21:57:27Z</time>
      </trkpt>
      <trkpt lat="45.75751" lon="3.07085">
        <ele>483</ele>
        <time>2021-11-19T21:57:31Z</time>
      </trkpt>
      <trkpt lat="45.75746" lon="3.07084">
        <ele>483</ele>
        <time>2021-11-19T21:57:32Z</time>
      </trkpt>
      <trkpt lat="45.7573" lon="3.07083">
        <ele>483</ele>
        <time>2021-11-19T21:57:36Z</time>
      </trkpt>
      <trkpt lat="45.75719" lon="3.07088">
        <ele>483</ele>
        <time>2021-11-19T21:57:39Z</time>
      </trkpt>
      <trkpt lat="45.75705" lon="3.07103">
        <ele>480</ele>
        <time>2021-11-19T21:57:44Z</time>
      </trkpt>
      <trkpt lat="45.75692" lon="3.07116">
        <ele>480</ele>
        <time>2021-11-19T21:57:48Z</time>
      </trkpt>
      <trkpt lat="45.75679" lon="3.07116">
        <ele>480</ele>
        <time>2021-11-19T21:57:52Z</time>
      </trkpt>
      <trkpt lat="45.75666" lon="3.0711">
        <ele>480</ele>
        <time>2021-11-19T21:57:55Z</time>
      </trkpt>
      <trkpt lat="45.75649" lon="3.07098">
        <ele>478</ele>
        <time>2021-11-19T21:58:00Z</time>
      </trkpt>
      <trkpt lat="45.75636" lon="3.07084">
        <ele>478</ele>
        <time>2021-11-19T21:58:05Z</time>
      </trkpt>
      <trkpt lat="45.75618" lon="3.07073">
        <ele>478</ele>
        <time>2021-11-19T21:58:10Z</time>
      </trkpt>
      <trkpt lat="45.756" lon="3.07069">
        <ele>478</ele>
        <time>2021-11-19T21:58:15Z</time>
      </trkpt>
      <trkpt lat="45.75584" lon="3.07065">
        <ele>478</ele>
        <time>2021-11-19T21:58:19Z</time>
      </trkpt>
      <trkpt lat="45.75578" lon="3.07065">
        <ele>478</ele>
        <time>2021-11-19T21:58:21Z</time>
      </trkpt>
      <trkpt lat="45.7556" lon="3.07084">
        <ele>478</ele>
        <time>2021-11-19T21:58:27Z</time>
      </trkpt>
      <trkpt lat="45.75553" lon="3.07092">
        <ele>479</ele>
        <time>2021-11-19T21:58:29Z</time>
      </trkpt>
      <trkpt lat="45.75544" lon="3.07098">
        <ele>479</ele>
        <time>2021-11-19T21:58:32Z</time>
      </trkpt>
      <trkpt lat="45.75533" lon="3.07115">
        <ele>479</ele>
        <time>2021-11-19T21:58:36Z</time>
      </trkpt>
      <trkpt lat="45.75516" lon="3.07137">
        <ele>477</ele>
        <time>2021-11-19T21:58:42Z</time>
      </trkpt>
      <trkpt lat="45.75499" lon="3.07151">
        <ele>477</ele>
        <time>2021-11-19T21:58:47Z</time>
      </trkpt>
      <trkpt lat="45.75482" lon="3.0717">
        <ele>477</ele>
        <time>2021-11-19T21:58:53Z</time>
      </trkpt>
      <trkpt lat="45.75469" lon="3.07191">
        <ele>476</ele>
        <time>2021-11-19T21:58:58Z</time>
      </trkpt>
      <trkpt lat="45.75453" lon="3.07206">
        <ele>476</ele>
        <time>2021-11-19T21:59:04Z</time>
      </trkpt>
      <trkpt lat="45.7542" lon="3.07226">
        <ele>476</ele>
        <time>2021-11-19T21:59:13Z</time>
      </trkpt>
      <trkpt lat="45.75414" lon="3.0723">
        <ele>476</ele>
        <time>2021-11-19T21:59:15Z</time>
      </trkpt>
      <trkpt lat="45.75407" lon="3.07236">
        <ele>476</ele>
        <time>2021-11-19T21:59:17Z</time>
      </trkpt>
      <trkpt lat="45.7539" lon="3.07253">
        <ele>476</ele>
        <time>2021-11-19T21:59:23Z</time>
      </trkpt>
      <trkpt lat="45.75355" lon="3.07283">
        <ele>478</ele>
        <time>2021-11-19T21:59:34Z</time>
      </trkpt>
      <trkpt lat="45.75351" lon="3.07288">
        <ele>478</ele>
        <time>2021-11-19T21:59:35Z</time>
      </trkpt>
      <trkpt lat="45.75347" lon="3.07295">
        <ele>478</ele>
        <time>2021-11-19T21:59:37Z</time>
      </trkpt>
      <trkpt lat="45.75336" lon="3.07346">
        <ele>481</ele>
        <time>2021-11-19T21:59:47Z</time>
      </trkpt>
      <trkpt lat="45.7533" lon="3.07372">
        <ele>481</ele>
        <time>2021-11-19T21:59:52Z</time>
      </trkpt>
      <trkpt lat="45.75323" lon="3.0738">
        <ele>481</ele>
        <time>2021-11-19T21:59:54Z</time>
      </trkpt>
      <trkpt lat="45.75315" lon="3.07391">
        <ele>481</ele>
        <time>2021-11-19T21:59:57Z</time>
      </trkpt>
      <trkpt lat="45.75321" lon="3.07415">
        <ele>481</ele>
        <time>2021-11-19T22:00:02Z</time>
      </trkpt>
      <trkpt lat="45.7532" lon="3.07428">
        <ele>481</ele>
        <time>2021-11-19T22:00:04Z</time>
      </trkpt>
      <trkpt lat="45.75316" lon="3.07435">
        <ele>481</ele>
        <time>2021-11-19T22:00:06Z</time>
      </trkpt>
      <trkpt lat="45.75305" lon="3.07442">
        <ele>481</ele>
        <time>2021-11-19T22:00:09Z</time>
      </trkpt>
      <trkpt lat="45.753" lon="3.07447">
        <ele>481</ele>
        <time>2021-11-19T22:00:11Z</time>
      </trkpt>
      <trkpt lat="45.75288" lon="3.07457">
        <ele>481</ele>
        <time>2021-11-19T22:00:14Z</time>
      </trkpt>
      <trkpt lat="45.75277" lon="3.07461">
        <ele>481</ele>
        <time>2021-11-19T22:00:17Z</time>
      </trkpt>
      <trkpt lat="45.75273" lon="3.07478">
        <ele>481</ele>
        <time>2021-11-19T22:00:21Z</time>
      </trkpt>
      <trkpt lat="45.75268" lon="3.07489">
        <ele>481</ele>
        <time>2021-11-19T22:00:23Z</time>
      </trkpt>
      <trkpt lat="45.75263" lon="3.07498">
        <ele>481</ele>
        <time>2021-11-19T22:00:25Z</time>
      </trkpt>
      <trkpt lat="45.7526" lon="3.07502">
        <ele>481</ele>
        <time>2021-11-19T22:00:27Z</time>
      </trkpt>
      <trkpt lat="45.75257" lon="3.07506">
        <ele>481</ele>
        <time>2021-11-19T22:00:28Z</time>
      </trkpt>
      <trkpt lat="45.75245" lon="3.07517">
        <ele>481</ele>
        <time>2021-11-19T22:00:31Z</time>
      </trkpt>
      <trkpt lat="45.75235" lon="3.07524">
        <ele>481</ele>
        <time>2021-11-19T22:00:34Z</time>
      </trkpt>
      <trkpt lat="45.75221" lon="3.07529">
        <ele>481</ele>
        <time>2021-11-19T22:00:38Z</time>
      </trkpt>
      <trkpt lat="45.75208" lon="3.0753">
        <ele>480</ele>
        <time>2021-11-19T22:00:42Z</time>
      </trkpt>
      <trkpt lat="45.75192" lon="3.07523">
        <ele>480</ele>
        <time>2021-11-19T22:00:46Z</time>
      </trkpt>
      <trkpt lat="45.75184" lon="3.07518">
        <ele>480</ele>
        <time>2021-11-19T22:00:49Z</time>
      </trkpt>
      <trkpt lat="45.75176" lon="3.07514">
        <ele>480</ele>
        <time>2021-11-19T22:00:51Z</time>
      </trkpt>
      <trkpt lat="45.75167" lon="3.07512">
        <ele>480</ele>
        <time>2021-11-19T22:00:53Z</time>
      </trkpt>
      <trkpt lat="45.75117" lon="3.07504">
        <ele>476</ele>
        <time>2021-11-19T22:01:07Z</time>
      </trkpt>
      <trkpt lat="45.75113" lon="3.07505">
        <ele>476</ele>
        <time>2021-11-19T22:01:08Z</time>
      </trkpt>
      <trkpt lat="45.75106" lon="3.07508">
        <ele>471</ele>
        <time>2021-11-19T22:01:10Z</time>
      </trkpt>
      <trkpt lat="45.75101" lon="3.07513">
        <ele>471</ele>
        <time>2021-11-19T22:01:11Z</time>
      </trkpt>
      <trkpt lat="45.75068" lon="3.07541">
        <ele>471</ele>
        <time>2021-11-19T22:01:22Z</time>
      </trkpt>
      <trkpt lat="45.75049" lon="3.07554">
        <ele>466</ele>
        <time>2021-11-19T22:01:27Z</time>
      </trkpt>
      <trkpt lat="45.75043" lon="3.07549">
        <ele>466</ele>
        <time>2021-11-19T22:01:29Z</time>
      </trkpt>
      <trkpt lat="45.75035" lon="3.07573">
        <ele>466</ele>
        <time>2021-11-19T22:01:34Z</time>
      </trkpt>
      <trkpt lat="45.75024" lon="3.07614">
        <ele>465</ele>
        <time>2021-11-19T22:01:42Z</time>
      </trkpt>
      <trkpt lat="45.75012" lon="3.07667">
        <ele>463</ele>
        <time>2021-11-19T22:01:53Z</time>
      </trkpt>
      <trkpt lat="45.7501" lon="3.07677">
        <ele>463</ele>
        <time>2021-11-19T22:01:55Z</time>
      </trkpt>
      <trkpt lat="45.74994" lon="3.07757">
        <ele>462</ele>
        <time>2021-11-19T22:02:10Z</time>
      </trkpt>
      <trkpt lat="45.74991" lon="3.07796">
        <ele>462</ele>
        <time>2021-11-19T22:02:17Z</time>
      </trkpt>
      <trkpt lat="45.7499" lon="3.07814">
        <ele>462</ele>
        <time>2021-11-19T22:02:21Z</time>
      </trkpt>
      <trkpt lat="45.74985" lon="3.07889">
        <ele>461</ele>
        <time>2021-11-19T22:02:35Z</time>
      </trkpt>
      <trkpt lat="45.74985" lon="3.07903">
        <ele>460</ele>
        <time>2021-11-19T22:02:37Z</time>
      </trkpt>
      <trkpt lat="45.74986" lon="3.07921">
        <ele>460</ele>
        <time>2021-11-19T22:02:41Z</time>
      </trkpt>
      <trkpt lat="45.74987" lon="3.07934">
        <ele>460</ele>
        <time>2021-11-19T22:02:43Z</time>
      </trkpt>
      <trkpt lat="45.74988" lon="3.07947">
        <ele>460</ele>
        <time>2021-11-19T22:02:46Z</time>
      </trkpt>
      <trkpt lat="45.75011" lon="3.08078">
        <ele>459</ele>
        <time>2021-11-19T22:03:11Z</time>
      </trkpt>
      <trkpt lat="45.7502" lon="3.08133">
        <ele>457</ele>
        <time>2021-11-19T22:03:21Z</time>
      </trkpt>
      <trkpt lat="45.75023" lon="3.0817">
        <ele>457</ele>
        <time>2021-11-19T22:03:28Z</time>
      </trkpt>
      <trkpt lat="45.75025" lon="3.08195">
        <ele>457</ele>
        <time>2021-11-19T22:03:33Z</time>
      </trkpt>
      <trkpt lat="45.7503" lon="3.08244">
        <ele>454</ele>
        <time>2021-11-19T22:03:42Z</time>
      </trkpt>
      <trkpt lat="45.75034" lon="3.08284">
        <ele>451</ele>
        <time>2021-11-19T22:03:50Z</time>
      </trkpt>
      <trkpt lat="45.75031" lon="3.08315">
        <ele>451</ele>
        <time>2021-11-19T22:03:56Z</time>
      </trkpt>
      <trkpt lat="45.75032" lon="3.08364">
        <ele>448</ele>
        <time>2021-11-19T22:04:05Z</time>
      </trkpt>
      <trkpt lat="45.75033" lon="3.08371">
        <ele>448</ele>
        <time>2021-11-19T22:04:06Z</time>
      </trkpt>
      <trkpt lat="45.75035" lon="3.08403">
        <ele>448</ele>
        <time>2021-11-19T22:04:12Z</time>
      </trkpt>
      <trkpt lat="45.75037" lon="3.08416">
        <ele>448</ele>
        <time>2021-11-19T22:04:15Z</time>
      </trkpt>
      <trkpt lat="45.75046" lon="3.08431">
        <ele>448</ele>
        <time>2021-11-19T22:04:18Z</time>
      </trkpt>
      <trkpt lat="45.75061" lon="3.08462">
        <ele>448</ele>
        <time>2021-11-19T22:04:25Z</time>
      </trkpt>
      <trkpt lat="45.75065" lon="3.08471">
        <ele>448</ele>
        <time>2021-11-19T22:04:27Z</time>
      </trkpt>
      <trkpt lat="45.7507" lon="3.0849">
        <ele>448</ele>
        <time>2021-11-19T22:04:31Z</time>
      </trkpt>
      <trkpt lat="45.75071" lon="3.08496">
        <ele>448</ele>
        <time>2021-11-19T22:04:32Z</time>
      </trkpt>
      <trkpt lat="45.75075" lon="3.08515">
        <ele>447</ele>
        <time>2021-11-19T22:04:36Z</time>
      </trkpt>
      <trkpt lat="45.75071" lon="3.08517">
        <ele>447</ele>
        <time>2021-11-19T22:04:37Z</time>
      </trkpt>
      <trkpt lat="45.75068" lon="3.08518">
        <ele>447</ele>
        <time>2021-11-19T22:04:38Z</time>
      </trkpt>
      <trkpt lat="45.75064" lon="3.0852">
        <ele>447</ele>
        <time>2021-11-19T22:04:39Z</time>
      </trkpt>
      <trkpt lat="45.75053" lon="3.08524">
        <ele>447</ele>
        <time>2021-11-19T22:04:42Z</time>
      </trkpt>
      <trkpt lat="45.75041" lon="3.08533">
        <ele>447</ele>
        <time>2021-11-19T22:04:46Z</time>
      </trkpt>
      <trkpt lat="45.75042" lon="3.08545">
        <ele>447</ele>
        <time>2021-11-19T22:04:48Z</time>
      </trkpt>
      <trkpt lat="45.75039" lon="3.08561">
        <ele>445</ele>
        <time>2021-11-19T22:04:51Z</time>
      </trkpt>
      <trkpt lat="45.75049" lon="3.08567">
        <ele>445</ele>
        <time>2021-11-19T22:04:54Z</time>
      </trkpt>
      <trkpt lat="45.75055" lon="3.08574">
        <ele>445</ele>
        <time>2021-11-19T22:04:56Z</time>
      </trkpt>
      <trkpt lat="45.75057" lon="3.08567">
        <ele>445</ele>
        <time>2021-11-19T22:04:57Z</time>
      </trkpt>
      <trkpt lat="45.75058" lon="3.08565">
        <ele>445</ele>
        <time>2021-11-19T22:04:58Z</time>
      </trkpt>
      <trkpt lat="45.7506" lon="3.08564">
        <ele>445</ele>
        <time>2021-11-19T22:04:58Z</time>
      </trkpt>
      <trkpt lat="45.75061" lon="3.08562">
        <ele>445</ele>
        <time>2021-11-19T22:04:59Z</time>
      </trkpt>
      <trkpt lat="45.75062" lon="3.08559">
        <ele>445</ele>
        <time>2021-11-19T22:04:59Z</time>
      </trkpt>
      <trkpt lat="45.75063" lon="3.0855">
        <ele>445</ele>
        <time>2021-11-19T22:05:01Z</time>
      </trkpt>
      <trkpt lat="45.75063" lon="3.08542">
        <ele>445</ele>
        <time>2021-11-19T22:05:03Z</time>
      </trkpt>
    </trkseg>
  </trk>
</gpx>